Observation data for Amarillo 7 South Southeast on 03/11/2018      Previous  Date  Next       Current Mesonet Observations  Soil Data  Daily Summary Page  Observations in Plain Language
KAM1 110600Z 02019KT 10/M06 A3008 RMK A01 T00991058  RH  033%=      5-min Rain = 0
KAM1 110601Z 02020G27KT 10/M06 A3008 RMK A01 T00981058  RH  033%=      5-min Rain = 0
KAM1 110602Z 02022G29KT 10/M06 A3008 RMK A01 T00981058  RH  033%=      5-min Rain = 0
KAM1 110603Z 02018KT 10/M06 A3008 RMK A01 T00971058  RH  033%=      5-min Rain = 0
KAM1 110604Z 02020G25KT 10/M06 A3008 RMK A01 T00971058  RH  033%=      5-min Rain = 0
KAM1 110605Z 02020KT 10/M06 A3009 RMK A01 T00971058  RH  033%=      5-min Rain = 0
KAM1 110606Z 02020KT 10/M06 A3009 RMK A01 T00971057  RH  033%=      5-min Rain = 0
KAM1 110607Z 02021KT 10/M06 A3009 RMK A01 T00971057  RH  033%=      5-min Rain = 0
KAM1 110608Z 02021KT 10/M06 A3009 RMK A01 T00981057  RH  033%=      5-min Rain = 0
KAM1 110609Z 02018KT 10/M06 A3009 RMK A01 T00971057  RH  033%=      5-min Rain = 0
KAM1 110610Z 03017KT 10/M06 A3009 RMK A01 T00971057  RH  033%=      5-min Rain = 0
KAM1 110611Z 02018KT 10/M06 A3009 RMK A01 T00961057  RH  033%=      5-min Rain = 0
KAM1 110612Z 02018G24KT 10/M06 A3009 RMK A01 T00961057  RH  034%=      5-min Rain = 0
KAM1 110613Z 02019G24KT 10/M06 A3009 RMK A01 T00951057  RH  034%=      5-min Rain = 0
KAM1 110614Z 02020KT 10/M06 A3009 RMK A01 T00951056  RH  034%=      5-min Rain = 0
KAM1 110615Z 02020G25KT 10/M06 A3009 RMK A01 T00961055  RH  034%=      5-min Rain = 0
KAM1 110616Z 02019KT 10/M06 A3009 RMK A01 T00961055  RH  034%=      5-min Rain = 0
KAM1 110617Z 02019G24KT 10/M06 A3009 RMK A01 T00961055  RH  034%=      5-min Rain = 0
KAM1 110618Z 03019KT 10/M06 A3009 RMK A01 T00951055  RH  034%=      5-min Rain = 0
KAM1 110619Z 02019KT 10/M06 A3009 RMK A01 T00951055  RH  034%=      5-min Rain = 0
KAM1 110620Z 02019KT 10/M06 A3009 RMK A01 T00951055  RH  034%=      5-min Rain = 0
KAM1 110621Z 02018G26KT 10/M06 A3009 RMK A01 T00951055  RH  034%=      5-min Rain = 0
KAM1 110622Z 02017KT 09/M06 A3009 RMK A01 T00941055  RH  034%=      5-min Rain = 0
KAM1 110623Z 03018KT 09/M06 A3009 RMK A01 T00941055  RH  035%=      5-min Rain = 0
KAM1 110624Z 02017KT 09/M05 A3009 RMK A01 T00941054  RH  035%=      5-min Rain = 0
KAM1 110625Z 03017G22KT 09/M06 A3009 RMK A01 T00941055  RH  035%=      5-min Rain = 0
KAM1 110626Z 03019KT 09/M06 A3009 RMK A01 T00931055  RH  035%=      5-min Rain = 0
KAM1 110627Z 02022KT 09/M05 A3009 RMK A01 T00941054  RH  035%=      5-min Rain = 0
KAM1 110628Z 02021G27KT 09/M05 A3009 RMK A01 T00941054  RH  035%=      5-min Rain = 0
KAM1 110629Z 03019G24KT 09/M05 A3009 RMK A01 T00941054  RH  035%=      5-min Rain = 0
KAM1 110630Z 02019KT 09/M05 A301 RMK A01 T00941054  RH  035%=      5-min Rain = 0
KAM1 110631Z 02019KT 09/M05 A301 RMK A01 T00941054  RH  035%=      5-min Rain = 0
KAM1 110632Z 03019G24KT 09/M05 A301 RMK A01 T00941054  RH  035%=      5-min Rain = 0
KAM1 110633Z 03018KT 09/M05 A301 RMK A01 T00931054  RH  035%=      5-min Rain = 0
KAM1 110634Z 02017G23KT 09/M05 A301 RMK A01 T00931054  RH  035%=      5-min Rain = 0
KAM1 110635Z 02017KT 09/M05 A301 RMK A01 T00931054  RH  035%=      5-min Rain = 0
KAM1 110636Z 02018G23KT 09/M05 A301 RMK A01 T00921054  RH  035%=      5-min Rain = 0
KAM1 110637Z 02015KT 09/M05 A301 RMK A01 T00921054  RH  035%=      5-min Rain = 0
KAM1 110638Z 02019G26KT 09/M05 A301 RMK A01 T00921054  RH  035%=      5-min Rain = 0
KAM1 110639Z 03023KT 09/M05 A301 RMK A01 T00921053  RH  035%=      5-min Rain = 0
KAM1 110640Z 02017G23KT 09/M05 A301 RMK A01 T00931053  RH  035%=      5-min Rain = 0
KAM1 110641Z 02018KT 09/M05 A301 RMK A01 T00921054  RH  035%=      5-min Rain = 0
KAM1 110642Z 02016G21KT 09/M05 A301 RMK A01 T00921054  RH  035%=      5-min Rain = 0
KAM1 110643Z 02015G24KT 09/M05 A301 RMK A01 T00911054  RH  035%=      5-min Rain = 0
KAM1 110644Z 03022KT 09/M05 A301 RMK A01 T00911053  RH  036%=      5-min Rain = 0
KAM1 110645Z 02019KT 09/M05 A301 RMK A01 T00911053  RH  036%=      5-min Rain = 0
KAM1 110646Z 02020G25KT 09/M05 A301 RMK A01 T00921053  RH  036%=      5-min Rain = 0
KAM1 110647Z 02017KT 09/M05 A301 RMK A01 T00921053  RH  035%=      5-min Rain = 0
KAM1 110648Z 02016KT 09/M05 A301 RMK A01 T00911054  RH  035%=      5-min Rain = 0
KAM1 110649Z 02017KT 09/M05 A301 RMK A01 T00911054  RH  036%=      5-min Rain = 0
KAM1 110650Z 02016KT 09/M05 A301 RMK A01 T00911053  RH  036%=      5-min Rain = 0
KAM1 110651Z 02016KT 09/M05 A301 RMK A01 T00911053  RH  036%=      5-min Rain = 0
KAM1 110652Z 02015KT 09/M05 A301 RMK A01 T00901053  RH  036%=      5-min Rain = 0
KAM1 110653Z 02016G21KT 09/M05 A301 RMK A01 T00901053  RH  036%=      5-min Rain = 0
KAM1 110654Z 02015KT 09/M05 A3011 RMK A01 T00891053  RH  036%=      5-min Rain = 0
KAM1 110655Z 02015G22KT 09/M05 A3011 RMK A01 T00891054  RH  036%=      5-min Rain = 0
KAM1 110656Z 02020KT 09/M05 A3011 RMK A01 T00891054  RH  036%=      5-min Rain = 0
KAM1 110657Z 02015G21KT 09/M05 A3011 RMK A01 T00901053  RH  036%=      5-min Rain = 0
KAM1 110658Z 02014KT 09/M05 A3011 RMK A01 T00901053  RH  036%=      5-min Rain = 0
KAM1 110659Z 02015KT 09/M05 A3011 RMK A01 T00891054  RH  036%=      5-min Rain = 0
KAM1 110700Z 02017KT 09/M05 A3011 RMK A01 T00881054  RH  036%=      5-min Rain = 0
KAM1 110701Z 02017KT 09/M05 A3011 RMK A01 T00891053  RH  036%=      5-min Rain = 0
KAM1 110702Z 02014KT 09/M05 A3011 RMK A01 T00881054  RH  036%=      5-min Rain = 0
KAM1 110703Z 02016KT 09/M05 A3011 RMK A01 T00881053  RH  036%=      5-min Rain = 0
KAM1 110704Z 02014KT 09/M05 A3011 RMK A01 T00881054  RH  036%=      5-min Rain = 0
KAM1 110705Z 02015KT 09/M05 A3011 RMK A01 T00881053  RH  036%=      5-min Rain = 0
KAM1 110706Z 02019KT 09/M05 A3011 RMK A01 T00881053  RH  036%=      5-min Rain = 0
KAM1 110707Z 02017KT 09/M05 A3011 RMK A01 T00881053  RH  036%=      5-min Rain = 0
KAM1 110708Z 02014KT 09/M05 A3011 RMK A01 T00881053  RH  036%=      5-min Rain = 0
KAM1 110709Z 02017KT 09/M05 A3011 RMK A01 T00881053  RH  036%=      5-min Rain = 0
KAM1 110710Z 02016G21KT 09/M05 A3012 RMK A01 T00881053  RH  036%=      5-min Rain = 0
KAM1 110711Z 02013KT 09/M05 A3012 RMK A01 T00881053  RH  036%=      5-min Rain = 0
KAM1 110712Z 02015KT 09/M05 A3012 RMK A01 T00871054  RH  036%=      5-min Rain = 0
KAM1 110713Z 02014KT 09/M05 A3012 RMK A01 T00871053  RH  037%=      5-min Rain = 0
KAM1 110714Z 02013KT 09/M05 A3012 RMK A01 T00871053  RH  037%=      5-min Rain = 0
KAM1 110715Z 02012KT 09/M05 A3012 RMK A01 T00861054  RH  037%=      5-min Rain = 0
KAM1 110716Z 02015G21KT 09/M05 A3012 RMK A01 T00851054  RH  037%=      5-min Rain = 0
KAM1 110717Z 02016KT 09/M05 A3012 RMK A01 T00851053  RH  037%=      5-min Rain = 0
KAM1 110718Z 02014KT 09/M05 A3012 RMK A01 T00861053  RH  037%=      5-min Rain = 0
KAM1 110719Z 02014KT 09/M05 A3012 RMK A01 T00861053  RH  037%=      5-min Rain = 0
KAM1 110720Z 02014KT 09/M05 A3012 RMK A01 T00851054  RH  037%=      5-min Rain = 0
KAM1 110721Z 02013KT 09/M05 A3012 RMK A01 T00851053  RH  037%=      5-min Rain = 0
KAM1 110722Z 02013KT 08/M05 A3012 RMK A01 T00841054  RH  037%=      5-min Rain = 0
KAM1 110723Z 02014KT 08/M05 A3012 RMK A01 T00841053  RH  037%=      5-min Rain = 0
KAM1 110724Z 01013KT 08/M05 A3012 RMK A01 T00841054  RH  037%=      5-min Rain = 0
KAM1 110725Z 02014KT 08/M05 A3012 RMK A01 T00831053  RH  037%=      5-min Rain = 0
KAM1 110726Z 01014G19KT 08/M05 A3012 RMK A01 T00831053  RH  038%=      5-min Rain = 0
KAM1 110727Z 01013KT 08/M05 A3012 RMK A01 T00831053  RH  038%=      5-min Rain = 0
KAM1 110728Z 01013G18KT 08/M05 A3012 RMK A01 T00831053  RH  038%=      5-min Rain = 0
KAM1 110729Z 01012KT 08/M05 A3012 RMK A01 T00831053  RH  038%=      5-min Rain = 0
KAM1 110730Z 02013KT 08/M05 A3012 RMK A01 T00831053  RH  038%=      5-min Rain = 0
KAM1 110731Z 01016KT 08/M05 A3013 RMK A01 T00821053  RH  038%=      5-min Rain = 0
KAM1 110732Z 01014KT 08/M05 A3012 RMK A01 T00821052  RH  038%=      5-min Rain = 0
KAM1 110733Z 02015KT 08/M05 A3013 RMK A01 T00831052  RH  038%=      5-min Rain = 0
KAM1 110734Z 01012KT 08/M05 A3013 RMK A01 T00831053  RH  038%=      5-min Rain = 0
KAM1 110735Z 01014KT 08/M05 A3013 RMK A01 T00821053  RH  038%=      5-min Rain = 0
KAM1 110736Z 01014KT 08/M05 A3013 RMK A01 T00811053  RH  038%=      5-min Rain = 0
KAM1 110737Z 01013KT 08/M05 A3013 RMK A01 T00811052  RH  038%=      5-min Rain = 0
KAM1 110738Z 01013KT 08/M05 A3013 RMK A01 T00811053  RH  038%=      5-min Rain = 0
KAM1 110739Z 01014KT 08/M05 A3013 RMK A01 T00811053  RH  038%=      5-min Rain = 0
KAM1 110740Z 01012KT 08/M05 A3013 RMK A01 T00811052  RH  038%=      5-min Rain = 0
KAM1 110741Z 01014KT 08/M05 A3013 RMK A01 T00811053  RH  038%=      5-min Rain = 0
KAM1 110742Z 01016KT 08/M05 A3013 RMK A01 T00811052  RH  038%=      5-min Rain = 0
KAM1 110743Z 02015KT 08/M05 A3013 RMK A01 T00811052  RH  038%=      5-min Rain = 0
KAM1 110744Z 01013KT 08/M05 A3013 RMK A01 T00811052  RH  038%=      5-min Rain = 0
KAM1 110745Z 01013KT 08/M05 A3013 RMK A01 T00811052  RH  038%=      5-min Rain = 0
KAM1 110746Z 01014KT 08/M05 A3013 RMK A01 T00811052  RH  039%=      5-min Rain = 0
KAM1 110747Z 02013KT 08/M05 A3013 RMK A01 T00811052  RH  039%=      5-min Rain = 0
KAM1 110748Z 01013KT 08/M05 A3013 RMK A01 T00811052  RH  039%=      5-min Rain = 0
KAM1 110749Z 01014KT 08/M05 A3013 RMK A01 T00801052  RH  039%=      5-min Rain = 0
KAM1 110750Z 02015KT 08/M05 A3013 RMK A01 T00801052  RH  039%=      5-min Rain = 0
KAM1 110751Z 01013KT 08/M05 A3013 RMK A01 T00801052  RH  039%=      5-min Rain = 0
KAM1 110752Z 02014KT 08/M05 A3013 RMK A01 T00801052  RH  039%=      5-min Rain = 0
KAM1 110753Z 01013KT 08/M05 A3013 RMK A01 T00801052  RH  039%=      5-min Rain = 0
KAM1 110754Z 02014KT 08/M05 A3013 RMK A01 T00801052  RH  039%=      5-min Rain = 0
KAM1 110755Z 01014KT 08/M05 A3013 RMK A01 T00801052  RH  039%=      5-min Rain = 0
KAM1 110756Z 01013KT 08/M05 A3013 RMK A01 T00801053  RH  039%=      5-min Rain = 0
KAM1 110757Z 01014KT 08/M05 A3013 RMK A01 T00801052  RH  039%=      5-min Rain = 0
KAM1 110758Z 01016KT 08/M05 A3013 RMK A01 T00791053  RH  039%=      5-min Rain = 0
KAM1 110759Z 02016KT 08/M05 A3013 RMK A01 T00801053  RH  039%=      5-min Rain = 0
KAM1 110800Z 01014KT 08/M05 A3013 RMK A01 T00801053  RH  039%=      5-min Rain = 0
KAM1 110801Z 01013KT 08/M05 A3013 RMK A01 T00801053  RH  039%=      5-min Rain = 0
KAM1 110802Z 01015KT 08/M05 A3013 RMK A01 T00801053  RH  039%=      5-min Rain = 0
KAM1 110803Z 01015KT 08/M05 A3013 RMK A01 T00801053  RH  039%=      5-min Rain = 0
KAM1 110804Z 01012KT 08/M05 A3013 RMK A01 T00801053  RH  039%=      5-min Rain = 0
KAM1 110805Z 02013KT 08/M05 A3013 RMK A01 T00791053  RH  039%=      5-min Rain = 0
KAM1 110806Z 02012KT 08/M05 A3013 RMK A01 T00791053  RH  039%=      5-min Rain = 0
KAM1 110807Z 01012KT 08/M05 A3013 RMK A01 T00791054  RH  039%=      5-min Rain = 0
KAM1 110808Z 01013KT 08/M05 A3013 RMK A01 T00781053  RH  039%=      5-min Rain = 0
KAM1 110809Z 01013G18KT 08/M05 A3013 RMK A01 T00791053  RH  039%=      5-min Rain = 0
KAM1 110810Z 01015KT 08/M05 A3013 RMK A01 T00781053  RH  039%=      5-min Rain = 0
KAM1 110811Z 01013KT 08/M05 A3013 RMK A01 T00791053  RH  039%=      5-min Rain = 0
KAM1 110812Z 01013KT 08/M05 A3013 RMK A01 T00791053  RH  039%=      5-min Rain = 0
KAM1 110813Z 01012KT 08/M05 A3013 RMK A01 T00791053  RH  039%=      5-min Rain = 0
KAM1 110814Z 01014KT 08/M05 A3013 RMK A01 T00791053  RH  039%=      5-min Rain = 0
KAM1 110815Z 01014KT 08/M05 A3013 RMK A01 T00781053  RH  039%=      5-min Rain = 0
KAM1 110816Z 01012KT 08/M05 A3013 RMK A01 T00781053  RH  039%=      5-min Rain = 0
KAM1 110817Z 01012KT 08/M05 A3013 RMK A01 T00781053  RH  039%=      5-min Rain = 0
KAM1 110818Z 01012KT 08/M05 A3013 RMK A01 T00781053  RH  039%=      5-min Rain = 0
KAM1 110819Z 01014G19KT 08/M05 A3013 RMK A01 T00781053  RH  039%=      5-min Rain = 0
KAM1 110820Z 01015KT 08/M05 A3013 RMK A01 T00781053  RH  039%=      5-min Rain = 0
KAM1 110821Z 01015KT 08/M05 A3013 RMK A01 T00781053  RH  039%=      5-min Rain = 0
KAM1 110822Z 01010KT 08/M05 A3013 RMK A01 T00781053  RH  039%=      5-min Rain = 0
KAM1 110823Z 01013G18KT 08/M05 A3013 RMK A01 T00781054  RH  039%=      5-min Rain = 0
KAM1 110824Z 01016KT 08/M05 A3013 RMK A01 T00771054  RH  039%=      5-min Rain = 0
KAM1 110825Z 01015KT 08/M05 A3013 RMK A01 T00781054  RH  039%=      5-min Rain = 0
KAM1 110826Z 01014KT 08/M05 A3013 RMK A01 T00781054  RH  039%=      5-min Rain = 0
KAM1 110827Z 01017KT 08/M05 A3013 RMK A01 T00781054  RH  039%=      5-min Rain = 0
KAM1 110828Z 01014KT 08/M05 A3013 RMK A01 T00781054  RH  039%=      5-min Rain = 0
KAM1 110829Z 01013G18KT 08/M06 A3013 RMK A01 T00781055  RH  038%=      5-min Rain = 0
KAM1 110830Z 01015KT 08/M06 A3013 RMK A01 T00771055  RH  039%=      5-min Rain = 0
KAM1 110831Z 01016KT 08/M06 A3013 RMK A01 T00781055  RH  039%=      5-min Rain = 0
KAM1 110832Z 01016KT 08/M06 A3013 RMK A01 T00781055  RH  038%=      5-min Rain = 0
KAM1 110833Z 01012KT 08/M06 A3013 RMK A01 T00781055  RH  038%=      5-min Rain = 0
KAM1 110834Z 00015KT 08/M06 A3013 RMK A01 T00771056  RH  038%=      5-min Rain = 0
KAM1 110835Z 00014G19KT 08/M06 A3013 RMK A01 T00771056  RH  038%=      5-min Rain = 0
KAM1 110836Z 01014KT 08/M06 A3013 RMK A01 T00771055  RH  038%=      5-min Rain = 0
KAM1 110837Z 01014KT 08/M06 A3013 RMK A01 T00771056  RH  039%=      5-min Rain = 0
KAM1 110838Z 01013KT 08/M06 A3013 RMK A01 T00761056  RH  039%=      5-min Rain = 0
KAM1 110839Z 01015KT 08/M06 A3014 RMK A01 T00761056  RH  039%=      5-min Rain = 0
KAM1 110840Z 01013KT 08/M06 A3014 RMK A01 T00761056  RH  039%=      5-min Rain = 0
KAM1 110841Z 00014KT 08/M06 A3014 RMK A01 T00761056  RH  039%=      5-min Rain = 0
KAM1 110842Z 00012KT 08/M06 A3014 RMK A01 T00761056  RH  039%=      5-min Rain = 0
KAM1 110843Z 01015KT 08/M06 A3014 RMK A01 T00751057  RH  039%=      5-min Rain = 0
KAM1 110844Z 01017KT 08/M06 A3014 RMK A01 T00751057  RH  039%=      5-min Rain = 0
KAM1 110845Z 01015KT 08/M06 A3014 RMK A01 T00751057  RH  039%=      5-min Rain = 0
KAM1 110846Z 01016KT 08/M06 A3014 RMK A01 T00751057  RH  039%=      5-min Rain = 0
KAM1 110847Z 00017KT 08/M06 A3014 RMK A01 T00751057  RH  038%=      5-min Rain = 0
KAM1 110848Z 01017KT 08/M06 A3014 RMK A01 T00751057  RH  038%=      5-min Rain = 0
KAM1 110849Z 00015KT 08/M06 A3014 RMK A01 T00751057  RH  038%=      5-min Rain = 0
KAM1 110850Z 01018G24KT 08/M06 A3014 RMK A01 T00751058  RH  038%=      5-min Rain = 0
KAM1 110851Z 01016G21KT 08/M06 A3014 RMK A01 T00751058  RH  038%=      5-min Rain = 0
KAM1 110852Z 01018KT 08/M06 A3014 RMK A01 T00751058  RH  038%=      5-min Rain = 0
KAM1 110853Z 01016G22KT 08/M06 A3014 RMK A01 T00751058  RH  038%=      5-min Rain = 0
KAM1 110854Z 01014KT 08/M06 A3014 RMK A01 T00751058  RH  038%=      5-min Rain = 0
KAM1 110855Z 01020KT 07/M06 A3014 RMK A01 T00741059  RH  038%=      5-min Rain = 0
KAM1 110856Z 01018G23KT 07/M06 A3014 RMK A01 T00741059  RH  038%=      5-min Rain = 0
KAM1 110857Z 01020KT 07/M06 A3015 RMK A01 T00741059  RH  038%=      5-min Rain = 0
KAM1 110858Z 01019KT 07/M06 A3015 RMK A01 T00741060  RH  038%=      5-min Rain = 0
KAM1 110859Z 01020G25KT 07/M06 A3015 RMK A01 T00741060  RH  038%=      5-min Rain = 0
KAM1 110900Z 01018G23KT 08/M06 A3015 RMK A01 T00751060  RH  038%=      5-min Rain = 0
KAM1 110901Z 01018KT 08/M06 A3015 RMK A01 T00751059  RH  038%=      5-min Rain = 0
KAM1 110902Z 00016KT 07/M06 A3015 RMK A01 T00741060  RH  038%=      5-min Rain = 0
KAM1 110903Z 01017G23KT 07/M06 A3015 RMK A01 T00741060  RH  038%=      5-min Rain = 0
KAM1 110904Z 01020KT 07/M06 A3015 RMK A01 T00731060  RH  038%=      5-min Rain = 0
KAM1 110905Z 01018KT 07/M06 A3015 RMK A01 T00731060  RH  038%=      5-min Rain = 0
KAM1 110906Z 00018KT 07/M06 A3015 RMK A01 T00731059  RH  038%=      5-min Rain = 0
KAM1 110907Z 01018KT 07/M06 A3015 RMK A01 T00721060  RH  038%=      5-min Rain = 0
KAM1 110908Z 01016G21KT 07/M06 A3015 RMK A01 T00721060  RH  038%=      5-min Rain = 0
KAM1 110909Z 01017G24KT 07/M06 A3015 RMK A01 T00721061  RH  038%=      5-min Rain = 0
KAM1 110910Z 01021G26KT 07/M06 A3015 RMK A01 T00711062  RH  038%=      5-min Rain = 0
KAM1 110911Z 01022G28KT 07/M06 A3015 RMK A01 T00721062  RH  038%=      5-min Rain = 0
KAM1 110912Z 01017G25KT 07/M06 A3015 RMK A01 T00721063  RH  038%=      5-min Rain = 0
KAM1 110913Z 02019KT 07/M06 A3015 RMK A01 T00721063  RH  038%=      5-min Rain = 0
KAM1 110914Z 01022KT 07/M06 A3015 RMK A01 T00721064  RH  037%=      5-min Rain = 0
KAM1 110915Z 01020G25KT 07/M07 A3015 RMK A01 T00711065  RH  037%=      5-min Rain = 0
KAM1 110916Z 01021G26KT 07/M07 A3015 RMK A01 T00721066  RH  037%=      5-min Rain = 0
KAM1 110917Z 01023G28KT 07/M07 A3015 RMK A01 T00711066  RH  037%=      5-min Rain = 0
KAM1 110918Z 01022KT 07/M07 A3015 RMK A01 T00711067  RH  037%=      5-min Rain = 0
KAM1 110919Z 01022KT 07/M07 A3015 RMK A01 T00711067  RH  037%=      5-min Rain = 0
KAM1 110920Z 02020KT 07/M07 A3015 RMK A01 T00711067  RH  037%=      5-min Rain = 0
KAM1 110921Z 02018KT 07/M07 A3015 RMK A01 T00701067  RH  037%=      5-min Rain = 0
KAM1 110922Z 02019KT 07/M07 A3015 RMK A01 T00701067  RH  037%=      5-min Rain = 0
KAM1 110923Z 02018G26KT 07/M07 A3015 RMK A01 T00691068  RH  037%=      5-min Rain = 0
KAM1 110924Z 01022G27KT 07/M07 A3015 RMK A01 T00691068  RH  037%=      5-min Rain = 0
KAM1 110925Z 01022KT 07/M07 A3015 RMK A01 T00691069  RH  037%=      5-min Rain = 0
KAM1 110926Z 02020G28KT 07/M07 A3015 RMK A01 T00691069  RH  037%=      5-min Rain = 0
KAM1 110927Z 01019KT 07/M07 A3015 RMK A01 T00691070  RH  036%=      5-min Rain = 0
KAM1 110928Z 01020G27KT 07/M07 A3015 RMK A01 T00691070  RH  036%=      5-min Rain = 0
KAM1 110929Z 01020KT 07/M07 A3015 RMK A01 T00691070  RH  037%=      5-min Rain = 0
KAM1 110930Z 01019KT 07/M07 A3015 RMK A01 T00691070  RH  036%=      5-min Rain = 0
KAM1 110931Z 01021KT 07/M07 A3015 RMK A01 T00691070  RH  036%=      5-min Rain = 0
KAM1 110932Z 02018G24KT 07/M07 A3015 RMK A01 T00691070  RH  036%=      5-min Rain = 0
KAM1 110933Z 01017KT 07/M07 A3015 RMK A01 T00681071  RH  036%=      5-min Rain = 0
KAM1 110934Z 01017G22KT 07/M07 A3015 RMK A01 T00671072  RH  036%=      5-min Rain = 0
KAM1 110935Z 01017G24KT 07/M07 A3015 RMK A01 T00671072  RH  036%=      5-min Rain = 0
KAM1 110936Z 02019KT 07/M07 A3015 RMK A01 T00671072  RH  036%=      5-min Rain = 0
KAM1 110937Z 02020KT 07/M07 A3016 RMK A01 T00671073  RH  036%=      5-min Rain = 0
KAM1 110938Z 01022KT 07/M07 A3016 RMK A01 T00671072  RH  036%=      5-min Rain = 0
KAM1 110939Z 02017KT 07/M07 A3016 RMK A01 T00671073  RH  036%=      5-min Rain = 0
KAM1 110940Z 01016KT 07/M07 A3016 RMK A01 T00671073  RH  036%=      5-min Rain = 0
KAM1 110941Z 01019G26KT 07/M07 A3016 RMK A01 T00661074  RH  036%=      5-min Rain = 0
KAM1 110942Z 01021KT 07/M07 A3016 RMK A01 T00661074  RH  036%=      5-min Rain = 0
KAM1 110943Z 01020KT 07/M07 A3016 RMK A01 T00661074  RH  036%=      5-min Rain = 0
KAM1 110944Z 01021G26KT 07/M08 A3016 RMK A01 T00651075  RH  036%=      5-min Rain = 0
KAM1 110945Z 01022KT 07/M08 A3016 RMK A01 T00651075  RH  036%=      5-min Rain = 0
KAM1 110946Z 01020G25KT 07/M08 A3016 RMK A01 T00651076  RH  036%=      5-min Rain = 0
KAM1 110947Z 01022G29KT 07/M08 A3016 RMK A01 T00651076  RH  036%=      5-min Rain = 0
KAM1 110948Z 01018KT 06/M08 A3015 RMK A01 T00641077  RH  036%=      5-min Rain = 0
KAM1 110949Z 01022KT 06/M08 A3016 RMK A01 T00641077  RH  036%=      5-min Rain = 0
KAM1 110950Z 01019G24KT 06/M08 A3016 RMK A01 T00641077  RH  036%=      5-min Rain = 0
KAM1 110951Z 01018KT 06/M08 A3016 RMK A01 T00631078  RH  036%=      5-min Rain = 0
KAM1 110952Z 02018KT 06/M08 A3016 RMK A01 T00631079  RH  036%=      5-min Rain = 0
KAM1 110953Z 02021KT 06/M08 A3016 RMK A01 T00621079  RH  036%=      5-min Rain = 0
KAM1 110954Z 01022G28KT 06/M08 A3016 RMK A01 T00621079  RH  036%=      5-min Rain = 0
KAM1 110955Z 01018G23KT 06/M08 A3016 RMK A01 T00621079  RH  036%=      5-min Rain = 0
KAM1 110956Z 01017KT 06/M08 A3016 RMK A01 T00621079  RH  036%=      5-min Rain = 0
KAM1 110957Z 01019KT 06/M08 A3016 RMK A01 T00611080  RH  036%=      5-min Rain = 0
KAM1 110958Z 01016KT 06/M08 A3016 RMK A01 T00611080  RH  036%=      5-min Rain = 0
KAM1 110959Z 01016KT 06/M08 A3016 RMK A01 T00601080  RH  036%=      5-min Rain = 0
KAM1 111000Z 01018KT 06/M08 A3016 RMK A01 T00601079  RH  036%=      5-min Rain = 0
KAM1 111001Z 01018KT 06/M08 A3016 RMK A01 T00601079  RH  036%=      5-min Rain = 0
KAM1 111002Z 01017KT 06/M08 A3016 RMK A01 T00601078  RH  036%=      5-min Rain = 0
KAM1 111003Z 00016KT 06/M08 A3016 RMK A01 T00591078  RH  037%=      5-min Rain = 0
KAM1 111004Z 00016KT 06/M08 A3016 RMK A01 T00601077  RH  037%=      5-min Rain = 0
KAM1 111005Z 36016KT 06/M08 A3016 RMK A01 T00591077  RH  037%=      5-min Rain = 0
KAM1 111006Z 00015KT 06/M08 A3016 RMK A01 T00591078  RH  037%=      5-min Rain = 0
KAM1 111007Z 01015KT 06/M08 A3016 RMK A01 T00591077  RH  037%=      5-min Rain = 0
KAM1 111008Z 01015KT 06/M08 A3016 RMK A01 T00581078  RH  037%=      5-min Rain = 0
KAM1 111009Z 01017G22KT 06/M08 A3016 RMK A01 T00571078  RH  037%=      5-min Rain = 0
KAM1 111010Z 01019KT 06/M08 A3017 RMK A01 T00571078  RH  037%=      5-min Rain = 0
KAM1 111011Z 01018KT 06/M08 A3016 RMK A01 T00571077  RH  037%=      5-min Rain = 0
KAM1 111012Z 02018G24KT 06/M08 A3017 RMK A01 T00561077  RH  038%=      5-min Rain = 0
KAM1 111013Z 01019G24KT 06/M08 A3017 RMK A01 T00561077  RH  038%=      5-min Rain = 0
KAM1 111014Z 01018KT 06/M08 A3017 RMK A01 T00551077  RH  038%=      5-min Rain = 0
KAM1 111015Z 01017KT 06/M08 A3017 RMK A01 T00551077  RH  038%=      5-min Rain = 0
KAM1 111016Z 01016KT 06/M08 A3017 RMK A01 T00551077  RH  038%=      5-min Rain = 0
KAM1 111017Z 01016KT 05/M08 A3017 RMK A01 T00541077  RH  038%=      5-min Rain = 0
KAM1 111018Z 01014KT 05/M08 A3017 RMK A01 T00541077  RH  038%=      5-min Rain = 0
KAM1 111019Z 01014KT 05/M08 A3017 RMK A01 T00531077  RH  039%=      5-min Rain = 0
KAM1 111020Z 01014KT 05/M08 A3017 RMK A01 T00531077  RH  039%=      5-min Rain = 0
KAM1 111021Z 01018KT 05/M08 A3017 RMK A01 T00531077  RH  039%=      5-min Rain = 0
KAM1 111022Z 01018KT 05/M08 A3017 RMK A01 T00531077  RH  039%=      5-min Rain = 0
KAM1 111023Z 01017KT 05/M08 A3017 RMK A01 T00531077  RH  038%=      5-min Rain = 0
KAM1 111024Z 01019G24KT 05/M08 A3017 RMK A01 T00531077  RH  038%=      5-min Rain = 0
KAM1 111025Z 01016G21KT 05/M08 A3017 RMK A01 T00531078  RH  038%=      5-min Rain = 0
KAM1 111026Z 01016KT 05/M08 A3017 RMK A01 T00531078  RH  038%=      5-min Rain = 0
KAM1 111027Z 01018KT 05/M08 A3017 RMK A01 T00521078  RH  038%=      5-min Rain = 0
KAM1 111028Z 01013KT 05/M08 A3017 RMK A01 T00521078  RH  039%=      5-min Rain = 0
KAM1 111029Z 00014KT 05/M08 A3017 RMK A01 T00511078  RH  039%=      5-min Rain = 0
KAM1 111030Z 00014KT 05/M08 A3017 RMK A01 T00511078  RH  039%=      5-min Rain = 0
KAM1 111031Z 01015KT 05/M08 A3017 RMK A01 T00501078  RH  039%=      5-min Rain = 0
KAM1 111032Z 01016KT 05/M08 A3017 RMK A01 T00501078  RH  039%=      5-min Rain = 0
KAM1 111033Z 01016G21KT 05/M08 A3017 RMK A01 T00501078  RH  039%=      5-min Rain = 0
KAM1 111034Z 01019KT 05/M08 A3017 RMK A01 T00501078  RH  039%=      5-min Rain = 0
KAM1 111035Z 01017KT 05/M08 A3017 RMK A01 T00501077  RH  039%=      5-min Rain = 0
KAM1 111036Z 00017G23KT 05/M08 A3018 RMK A01 T00501078  RH  039%=      5-min Rain = 0
KAM1 111037Z 01020KT 05/M08 A3018 RMK A01 T00491078  RH  039%=      5-min Rain = 0
KAM1 111038Z 01020G27KT 05/M08 A3018 RMK A01 T00491078  RH  039%=      5-min Rain = 0
KAM1 111039Z 00019KT 05/M08 A3018 RMK A01 T00491078  RH  039%=      5-min Rain = 0
KAM1 111040Z 01017KT 05/M08 A3018 RMK A01 T00491079  RH  039%=      5-min Rain = 0
KAM1 111041Z 00014KT 05/M08 A3018 RMK A01 T00481079  RH  039%=      5-min Rain = 0
KAM1 111042Z 00018G23KT 05/M08 A3018 RMK A01 T00481079  RH  039%=      5-min Rain = 0
KAM1 111043Z 36019G24KT 05/M08 A3018 RMK A01 T00471079  RH  039%=      5-min Rain = 0
KAM1 111044Z 01015G20KT 05/M08 A3019 RMK A01 T00471079  RH  039%=      5-min Rain = 0
KAM1 111045Z 00020G25KT 05/M08 A3019 RMK A01 T00471080  RH  039%=      5-min Rain = 0
KAM1 111046Z 01018KT 05/M08 A3019 RMK A01 T00461080  RH  039%=      5-min Rain = 0
KAM1 111047Z 01019KT 05/M08 A3019 RMK A01 T00461080  RH  040%=      5-min Rain = 0
KAM1 111048Z 00018G25KT 05/M08 A3019 RMK A01 T00461080  RH  040%=      5-min Rain = 0
KAM1 111049Z 00020KT 05/M08 A3019 RMK A01 T00461080  RH  040%=      5-min Rain = 0
KAM1 111050Z 01022KT 05/M08 A3019 RMK A01 T00461080  RH  040%=      5-min Rain = 0
KAM1 111051Z 01019G24KT 05/M08 A3019 RMK A01 T00461079  RH  040%=      5-min Rain = 0
KAM1 111052Z 00019KT 05/M08 A3019 RMK A01 T00451079  RH  040%=      5-min Rain = 0
KAM1 111053Z 01021KT 05/M08 A3019 RMK A01 T00451079  RH  040%=      5-min Rain = 0
KAM1 111054Z 01019KT 05/M08 A3019 RMK A01 T00451079  RH  040%=      5-min Rain = 0
KAM1 111055Z 01017KT 05/M08 A3019 RMK A01 T00451079  RH  040%=      5-min Rain = 0
KAM1 111056Z 01017KT 04/M08 A3019 RMK A01 T00441079  RH  040%=      5-min Rain = 0
KAM1 111057Z 01015KT 04/M08 A3019 RMK A01 T00441079  RH  040%=      5-min Rain = 0
KAM1 111058Z 01014KT 04/M08 A3019 RMK A01 T00431079  RH  041%=      5-min Rain = 0
KAM1 111059Z 01016KT 04/M08 A3019 RMK A01 T00431079  RH  041%=      5-min Rain = 0
KAM1 111100Z 00014KT 04/M08 A3019 RMK A01 T00431078  RH  041%=      5-min Rain = 0
KAM1 111101Z 01016KT 04/M08 A3019 RMK A01 T00421079  RH  041%=      5-min Rain = 0
KAM1 111102Z 01015KT 04/M08 A3019 RMK A01 T00421079  RH  041%=      5-min Rain = 0
KAM1 111103Z 00016KT 04/M08 A3019 RMK A01 T00421078  RH  041%=      5-min Rain = 0
KAM1 111104Z 01017KT 04/M08 A3019 RMK A01 T00421078  RH  041%=      5-min Rain = 0
KAM1 111105Z 00016KT 04/M08 A3019 RMK A01 T00411078  RH  042%=      5-min Rain = 0
KAM1 111106Z 01014KT 04/M08 A3019 RMK A01 T00411078  RH  042%=      5-min Rain = 0
KAM1 111107Z 01014KT 04/M08 A302 RMK A01 T00401078  RH  042%=      5-min Rain = 0
KAM1 111108Z 01016KT 04/M08 A302 RMK A01 T00401078  RH  042%=      5-min Rain = 0
KAM1 111109Z 36014G19KT 04/M08 A302 RMK A01 T00401077  RH  042%=      5-min Rain = 0
KAM1 111110Z 00016KT 04/M08 A3019 RMK A01 T00391077  RH  042%=      5-min Rain = 0
KAM1 111111Z 01018KT 04/M08 A302 RMK A01 T00391077  RH  042%=      5-min Rain = 0
KAM1 111112Z 01018KT 04/M08 A302 RMK A01 T00391076  RH  043%=      5-min Rain = 0
KAM1 111113Z 01017KT 04/M08 A302 RMK A01 T00391076  RH  043%=      5-min Rain = 0
KAM1 111114Z 01017KT 04/M08 A302 RMK A01 T00391076  RH  043%=      5-min Rain = 0
KAM1 111115Z 01016KT 04/M08 A302 RMK A01 T00391075  RH  043%=      5-min Rain = 0
KAM1 111116Z 01016KT 04/M08 A302 RMK A01 T00381075  RH  043%=      5-min Rain = 0
KAM1 111117Z 00016KT 04/M08 A302 RMK A01 T00381076  RH  043%=      5-min Rain = 0
KAM1 111118Z 01015G20KT 04/M08 A302 RMK A01 T00381075  RH  043%=      5-min Rain = 0
KAM1 111119Z 01015KT 04/M08 A302 RMK A01 T00371075  RH  044%=      5-min Rain = 0
KAM1 111120Z 01016KT 04/M08 A302 RMK A01 T00371075  RH  044%=      5-min Rain = 0
KAM1 111121Z 01016KT 04/M08 A302 RMK A01 T00371075  RH  044%=      5-min Rain = 0
KAM1 111122Z 01017KT 04/M07 A302 RMK A01 T00361074  RH  044%=      5-min Rain = 0
KAM1 111123Z 01017KT 04/M07 A302 RMK A01 T00361074  RH  044%=      5-min Rain = 0
KAM1 111124Z 01013G19KT 04/M07 A302 RMK A01 T00361074  RH  045%=      5-min Rain = 0
KAM1 111125Z 01019KT 04/M07 A302 RMK A01 T00351073  RH  045%=      5-min Rain = 0
KAM1 111126Z 01017KT 04/M07 A302 RMK A01 T00351073  RH  045%=      5-min Rain = 0
KAM1 111127Z 01014KT 04/M07 A302 RMK A01 T00351072  RH  045%=      5-min Rain = 0
KAM1 111128Z 01016KT 04/M07 A302 RMK A01 T00351072  RH  045%=      5-min Rain = 0
KAM1 111129Z 01015KT 03/M07 A302 RMK A01 T00341072  RH  046%=      5-min Rain = 0
KAM1 111130Z 01016KT 03/M07 A302 RMK A01 T00341072  RH  046%=      5-min Rain = 0
KAM1 111131Z 00015KT 03/M07 A302 RMK A01 T00341072  RH  046%=      5-min Rain = 0
KAM1 111132Z 01014G19KT 03/M07 A302 RMK A01 T00331072  RH  046%=      5-min Rain = 0
KAM1 111133Z 01014KT 03/M07 A302 RMK A01 T00331072  RH  046%=      5-min Rain = 0
KAM1 111134Z 01013KT 03/M07 A302 RMK A01 T00331072  RH  046%=      5-min Rain = 0
KAM1 111135Z 00014KT 03/M07 A302 RMK A01 T00321073  RH  046%=      5-min Rain = 0
KAM1 111136Z 00015KT 03/M07 A3021 RMK A01 T00321072  RH  046%=      5-min Rain = 0
KAM1 111137Z 01012KT 03/M07 A3021 RMK A01 T00321072  RH  046%=      5-min Rain = 0
KAM1 111138Z 01015KT 03/M07 A3021 RMK A01 T00311073  RH  046%=      5-min Rain = 0
KAM1 111139Z 01015KT 03/M07 A3021 RMK A01 T00311072  RH  047%=      5-min Rain = 0
KAM1 111140Z 00016KT 03/M07 A3021 RMK A01 T00311072  RH  047%=      5-min Rain = 0
KAM1 111141Z 01013KT 03/M07 A3021 RMK A01 T00311072  RH  047%=      5-min Rain = 0
KAM1 111142Z 01013KT 03/M07 A3021 RMK A01 T00301072  RH  047%=      5-min Rain = 0
KAM1 111143Z 01014KT 03/M07 A3021 RMK A01 T00301072  RH  047%=      5-min Rain = 0
KAM1 111144Z 00016KT 03/M07 A3021 RMK A01 T00291072  RH  047%=      5-min Rain = 0
KAM1 111145Z 01016G21KT 03/M07 A3021 RMK A01 T00291071  RH  048%=      5-min Rain = 0
KAM1 111146Z 01014KT 03/M07 A3021 RMK A01 T00291071  RH  048%=      5-min Rain = 0
KAM1 111147Z 01012KT 03/M07 A3021 RMK A01 T00291071  RH  048%=      5-min Rain = 0
KAM1 111148Z 01014KT 03/M07 A3021 RMK A01 T00281071  RH  048%=      5-min Rain = 0
KAM1 111149Z 01014KT 03/M07 A3021 RMK A01 T00281070  RH  048%=      5-min Rain = 0
KAM1 111150Z 01014KT 03/M07 A3021 RMK A01 T00281070  RH  048%=      5-min Rain = 0
KAM1 111151Z 01015KT 03/M07 A3021 RMK A01 T00281070  RH  049%=      5-min Rain = 0
KAM1 111152Z 01016KT 03/M07 A3021 RMK A01 T00281069  RH  049%=      5-min Rain = 0
KAM1 111153Z 01012KT 03/M07 A3021 RMK A01 T00281069  RH  049%=      5-min Rain = 0
KAM1 111154Z 01013KT 03/M07 A3021 RMK A01 T00281069  RH  049%=      5-min Rain = 0
KAM1 111155Z 01014KT 03/M07 A3021 RMK A01 T00271069  RH  049%=      5-min Rain = 0
KAM1 111156Z 01013KT 03/M07 A3022 RMK A01 T00271068  RH  049%=      5-min Rain = 0
KAM1 111157Z 00015KT 03/M07 A3022 RMK A01 T00271068  RH  050%=      5-min Rain = 0
KAM1 111158Z 01015KT 03/M07 A3022 RMK A01 T00271068  RH  050%=      5-min Rain = 0
KAM1 111159Z 01014G20KT 03/M07 A3022 RMK A01 T00271068  RH  050%=      5-min Rain = 0
KAM1 111200Z 01017KT 03/M07 A3022 RMK A01 T00271068  RH  050%=      5-min Rain = 0
KAM1 111201Z 00015KT 03/M07 A3022 RMK A01 T00271068  RH  050%=      5-min Rain = 0
KAM1 111202Z 01015KT 03/M07 A3022 RMK A01 T00271068  RH  050%=      5-min Rain = 0
KAM1 111203Z 00015KT 03/M07 A3022 RMK A01 T00271068  RH  050%=      5-min Rain = 0
KAM1 111204Z 01012KT 03/M07 A3022 RMK A01 T00271067  RH  050%=      5-min Rain = 0
KAM1 111205Z 01012KT 03/M07 A3022 RMK A01 T00261068  RH  050%=      5-min Rain = 0
KAM1 111206Z 01013KT 03/M07 A3022 RMK A01 T00261067  RH  050%=      5-min Rain = 0
KAM1 111207Z 00016KT 03/M07 A3022 RMK A01 T00251067  RH  051%=      5-min Rain = 0
KAM1 111208Z 01018G23KT 03/M07 A3022 RMK A01 T00251066  RH  051%=      5-min Rain = 0
KAM1 111209Z 01017KT 03/M07 A3022 RMK A01 T00251065  RH  052%=      5-min Rain = 0
KAM1 111210Z 01015KT 03/M06 A3022 RMK A01 T00251064  RH  052%=      5-min Rain = 0
KAM1 111211Z 01015KT 03/M06 A3022 RMK A01 T00251063  RH  052%=      5-min Rain = 0
KAM1 111212Z 01014KT 03/M06 A3022 RMK A01 T00251062  RH  053%=      5-min Rain = 0
KAM1 111213Z 01012KT 03/M06 A3022 RMK A01 T00251062  RH  053%=      5-min Rain = 0
KAM1 111214Z 01015G20KT 02/M06 A3022 RMK A01 T00241062  RH  053%=      5-min Rain = 0
KAM1 111215Z 00014KT 02/M06 A3022 RMK A01 T00241061  RH  054%=      5-min Rain = 0
KAM1 111216Z 01013KT 02/M06 A3022 RMK A01 T00241061  RH  054%=      5-min Rain = 0
KAM1 111217Z 01015KT 02/M06 A3022 RMK A01 T00231061  RH  054%=      5-min Rain = 0
KAM1 111218Z 01015KT 02/M06 A3022 RMK A01 T00231061  RH  054%=      5-min Rain = 0
KAM1 111219Z 01014KT 02/M06 A3022 RMK A01 T00231060  RH  054%=      5-min Rain = 0
KAM1 111220Z 01011KT 02/M06 A3022 RMK A01 T00231061  RH  054%=      5-min Rain = 0
KAM1 111221Z 01013KT 02/M06 A3022 RMK A01 T00221061  RH  054%=      5-min Rain = 0
KAM1 111222Z 01011G16KT 02/M06 A3022 RMK A01 T00221061  RH  054%=      5-min Rain = 0
KAM1 111223Z 00014KT 02/M06 A3022 RMK A01 T00221061  RH  054%=      5-min Rain = 0
KAM1 111224Z 00012KT 02/M06 A3022 RMK A01 T00221061  RH  054%=      5-min Rain = 0
KAM1 111225Z 00012KT 02/M06 A3022 RMK A01 T00221061  RH  054%=      5-min Rain = 0
KAM1 111226Z 00013G18KT 02/M06 A3022 RMK A01 T00221061  RH  054%=      5-min Rain = 0
KAM1 111227Z 01014KT 02/M06 A3022 RMK A01 T00211062  RH  054%=      5-min Rain = 0
KAM1 111228Z 00014KT 02/M06 A3023 RMK A01 T00211062  RH  054%=      5-min Rain = 0
KAM1 111229Z 00012KT 02/M06 A3023 RMK A01 T00211062  RH  054%=      5-min Rain = 0
KAM1 111230Z 00014KT 02/M06 A3023 RMK A01 T00201062  RH  054%=      5-min Rain = 0
KAM1 111231Z 01015KT 02/M06 A3023 RMK A01 T00201062  RH  055%=      5-min Rain = 0
KAM1 111232Z 01015KT 02/M06 A3023 RMK A01 T00201062  RH  055%=      5-min Rain = 0
KAM1 111233Z 01014G20KT 02/M06 A3023 RMK A01 T00201062  RH  055%=      5-min Rain = 0
KAM1 111234Z 01015KT 02/M06 A3023 RMK A01 T00201061  RH  055%=      5-min Rain = 0
KAM1 111235Z 01015KT 02/M06 A3023 RMK A01 T00201061  RH  055%=      5-min Rain = 0
KAM1 111236Z 00015G20KT 02/M06 A3023 RMK A01 T00191061  RH  055%=      5-min Rain = 0
KAM1 111237Z 00016KT 02/M06 A3023 RMK A01 T00191061  RH  055%=      5-min Rain = 0
KAM1 111238Z 01015KT 02/M06 A3023 RMK A01 T00191061  RH  055%=      5-min Rain = 0
KAM1 111239Z 36014G20KT 02/M06 A3023 RMK A01 T00191061  RH  055%=      5-min Rain = 0
KAM1 111240Z 36015KT 02/M06 A3023 RMK A01 T00191061  RH  056%=      5-min Rain = 0
KAM1 111241Z 00013KT 02/M06 A3024 RMK A01 T00191061  RH  056%=      5-min Rain = 0
KAM1 111242Z 00014KT 02/M06 A3024 RMK A01 T00181061  RH  056%=      5-min Rain = 0
KAM1 111243Z 00014KT 02/M06 A3024 RMK A01 T00181061  RH  056%=      5-min Rain = 0
KAM1 111244Z 00015KT 02/M06 A3024 RMK A01 T00171061  RH  056%=      5-min Rain = 0
KAM1 111245Z 00013KT 02/M06 A3024 RMK A01 T00171061  RH  056%=      5-min Rain = 0
KAM1 111246Z 01016KT 02/M06 A3024 RMK A01 T00161061  RH  056%=      5-min Rain = 0
KAM1 111247Z 00013KT 02/M06 A3024 RMK A01 T00161061  RH  056%=      5-min Rain = 0
KAM1 111248Z 00012KT 02/M06 A3024 RMK A01 T00161061  RH  056%=      5-min Rain = 0
KAM1 111249Z 00013KT 02/M06 A3024 RMK A01 T00151062  RH  057%=      5-min Rain = 0
KAM1 111250Z 00015KT 02/M06 A3024 RMK A01 T00151061  RH  057%=      5-min Rain = 0
KAM1 111251Z 36012KT 02/M06 A3024 RMK A01 T00161061  RH  057%=      5-min Rain = 0
KAM1 111252Z 01011KT 02/M06 A3024 RMK A01 T00151061  RH  057%=      5-min Rain = 0
KAM1 111253Z 00013KT 01/M06 A3024 RMK A01 T00141062  RH  057%=      5-min Rain = 0
KAM1 111254Z 01010KT 01/M06 A3024 RMK A01 T00131062  RH  057%=      5-min Rain = 0
KAM1 111255Z 01014KT 01/M06 A3024 RMK A01 T00121062  RH  057%=      5-min Rain = 0
KAM1 111256Z 01013KT 01/M06 A3024 RMK A01 T00121062  RH  058%=      5-min Rain = 0
KAM1 111257Z 00011KT 01/M06 A3024 RMK A01 T00121061  RH  058%=      5-min Rain = 0
KAM1 111258Z 01013KT 01/M06 A3025 RMK A01 T00121061  RH  058%=      5-min Rain = 0
KAM1 111259Z 00013KT 01/M06 A3025 RMK A01 T00121061  RH  058%=      5-min Rain = 0
KAM1 111300Z 00013KT 01/M06 A3025 RMK A01 T00121061  RH  058%=      5-min Rain = 0
KAM1 111301Z 01013KT 01/M06 A3025 RMK A01 T00121061  RH  058%=      5-min Rain = 0
KAM1 111302Z 00013KT 01/M06 A3025 RMK A01 T00121060  RH  059%=      5-min Rain = 0
KAM1 111303Z 01012KT 01/M06 A3025 RMK A01 T00121060  RH  059%=      5-min Rain = 0
KAM1 111304Z 00014KT 01/M06 A3025 RMK A01 T00111061  RH  059%=      5-min Rain = 0
KAM1 111305Z 01014KT 01/M06 A3025 RMK A01 T00111061  RH  059%=      5-min Rain = 0
KAM1 111306Z 00014KT 01/M06 A3025 RMK A01 T00111060  RH  059%=      5-min Rain = 0
KAM1 111307Z 00014KT 01/M06 A3025 RMK A01 T00111060  RH  059%=      5-min Rain = 0
KAM1 111308Z 01014KT 01/M06 A3025 RMK A01 T00111060  RH  059%=      5-min Rain = 0
KAM1 111309Z 01013KT 01/M06 A3025 RMK A01 T00111060  RH  059%=      5-min Rain = 0
KAM1 111310Z 00014KT 01/M06 A3025 RMK A01 T00111059  RH  059%=      5-min Rain = 0
KAM1 111311Z 01011KT 01/M06 A3025 RMK A01 T00111060  RH  059%=      5-min Rain = 0
KAM1 111312Z 01013KT 01/M06 A3025 RMK A01 T00111060  RH  059%=      5-min Rain = 0
KAM1 111313Z 01010KT 01/M06 A3025 RMK A01 T00101060  RH  060%=      5-min Rain = 0
KAM1 111314Z 00010KT 01/M06 A3025 RMK A01 T00101060  RH  060%=      5-min Rain = 0
KAM1 111315Z 36011KT 01/M06 A3026 RMK A01 T00091060  RH  060%=      5-min Rain = 0
KAM1 111316Z 35010KT 01/M06 A3026 RMK A01 T00091061  RH  060%=      5-min Rain = 0
KAM1 111317Z 36009KT 01/M06 A3026 RMK A01 T00081061  RH  060%=      5-min Rain = 0
KAM1 111318Z 36008KT 01/M06 A3026 RMK A01 T00071062  RH  060%=      5-min Rain = 0
KAM1 111319Z 36011KT 01/M06 A3026 RMK A01 T00071061  RH  060%=      5-min Rain = 0
KAM1 111320Z 00013KT 01/M06 A3026 RMK A01 T00071061  RH  060%=      5-min Rain = 0
KAM1 111321Z 00014KT 01/M06 A3026 RMK A01 T00081060  RH  060%=      5-min Rain = 0
KAM1 111322Z 36013KT 01/M06 A3026 RMK A01 T00091059  RH  060%=      5-min Rain = 0
KAM1 111323Z 36011KT 01/M06 A3026 RMK A01 T00101059  RH  060%=      5-min Rain = 0
KAM1 111324Z 36011KT 01/M06 A3026 RMK A01 T00101059  RH  060%=      5-min Rain = 0
KAM1 111325Z 36013KT 01/M06 A3026 RMK A01 T00101060  RH  060%=      5-min Rain = 0
KAM1 111326Z 36010KT 01/M06 A3026 RMK A01 T00101060  RH  060%=      5-min Rain = 0
KAM1 111327Z 36012KT 01/M06 A3026 RMK A01 T00101060  RH  060%=      5-min Rain = 0
KAM1 111328Z 36011KT 01/M06 A3026 RMK A01 T00091060  RH  060%=      5-min Rain = 0
KAM1 111329Z 36013KT 01/M06 A3026 RMK A01 T00101059  RH  060%=      5-min Rain = 0
KAM1 111330Z 00013KT 01/M06 A3026 RMK A01 T00101059  RH  060%=      5-min Rain = 0
KAM1 111331Z 35014KT 01/M06 A3026 RMK A01 T00111058  RH  060%=      5-min Rain = 0
KAM1 111332Z 00012KT 01/M06 A3026 RMK A01 T00111058  RH  060%=      5-min Rain = 0
KAM1 111333Z 36012KT 01/M06 A3026 RMK A01 T00111058  RH  060%=      5-min Rain = 0
KAM1 111334Z 00014KT 01/M06 A3026 RMK A01 T00111058  RH  060%=      5-min Rain = 0
KAM1 111335Z 00014KT 01/M06 A3026 RMK A01 T00121057  RH  060%=      5-min Rain = 0
KAM1 111336Z 36013G18KT 01/M06 A3026 RMK A01 T00121057  RH  060%=      5-min Rain = 0
KAM1 111337Z 36015KT 01/M06 A3027 RMK A01 T00131057  RH  060%=      5-min Rain = 0
KAM1 111338Z 36015KT 01/M06 A3027 RMK A01 T00131057  RH  060%=      5-min Rain = 0
KAM1 111339Z 36014KT 01/M06 A3027 RMK A01 T00131057  RH  059%=      5-min Rain = 0
KAM1 111340Z 35014KT 01/M06 A3027 RMK A01 T00131058  RH  059%=      5-min Rain = 0
KAM1 111341Z 36013KT 01/M06 A3027 RMK A01 T00141057  RH  059%=      5-min Rain = 0
KAM1 111342Z 35014KT 01/M06 A3027 RMK A01 T00141058  RH  059%=      5-min Rain = 0
KAM1 111343Z 35013KT 01/M06 A3027 RMK A01 T00141058  RH  059%=      5-min Rain = 0
KAM1 111344Z 35014KT 01/M06 A3027 RMK A01 T00141058  RH  059%=      5-min Rain = 0
KAM1 111345Z 36013G19KT 01/M06 A3027 RMK A01 T00141059  RH  058%=      5-min Rain = 0
KAM1 111346Z 36013KT 01/M06 A3027 RMK A01 T00141059  RH  058%=      5-min Rain = 0
KAM1 111347Z 35012KT 02/M06 A3027 RMK A01 T00151059  RH  058%=      5-min Rain = 0
KAM1 111348Z 36015KT 02/M06 A3027 RMK A01 T00151059  RH  058%=      5-min Rain = 0
KAM1 111349Z 36017KT 02/M06 A3027 RMK A01 T00151059  RH  058%=      5-min Rain = 0
KAM1 111350Z 36016KT 02/M06 A3027 RMK A01 T00151059  RH  058%=      5-min Rain = 0
KAM1 111351Z 36015KT 02/M06 A3027 RMK A01 T00161059  RH  058%=      5-min Rain = 0
KAM1 111352Z 36015KT 02/M06 A3027 RMK A01 T00161059  RH  057%=      5-min Rain = 0
KAM1 111353Z 00013G18KT 02/M06 A3027 RMK A01 T00161059  RH  057%=      5-min Rain = 0
KAM1 111354Z 00011KT 02/M06 A3027 RMK A01 T00171059  RH  057%=      5-min Rain = 0
KAM1 111355Z 00013KT 02/M06 A3027 RMK A01 T00181058  RH  057%=      5-min Rain = 0
KAM1 111356Z 36015KT 02/M06 A3027 RMK A01 T00181059  RH  056%=      5-min Rain = 0
KAM1 111357Z 35015KT 02/M06 A3027 RMK A01 T00181060  RH  056%=      5-min Rain = 0
KAM1 111358Z 35012KT 02/M06 A3027 RMK A01 T00181060  RH  056%=      5-min Rain = 0
KAM1 111359Z 35016KT 02/M06 A3028 RMK A01 T00191059  RH  056%=      5-min Rain = 0
KAM1 111400Z 35013KT 02/M06 A3028 RMK A01 T00191060  RH  056%=      5-min Rain = 0
KAM1 111401Z 35016KT 02/M06 A3028 RMK A01 T00191060  RH  056%=      5-min Rain = 0
KAM1 111402Z 00016KT 02/M06 A3028 RMK A01 T00191060  RH  056%=      5-min Rain = 0
KAM1 111403Z 36014KT 02/M06 A3028 RMK A01 T00191060  RH  056%=      5-min Rain = 0
KAM1 111404Z 36017KT 02/M06 A3028 RMK A01 T00191060  RH  056%=      5-min Rain = 0
KAM1 111405Z 36018KT 02/M06 A3028 RMK A01 T00191061  RH  056%=      5-min Rain = 0
KAM1 111406Z 00018KT 02/M06 A3028 RMK A01 T00191061  RH  056%=      5-min Rain = 0
KAM1 111407Z 00015KT 02/M06 A3028 RMK A01 T00181061  RH  056%=      5-min Rain = 0
KAM1 111408Z 35018KT 02/M06 A3028 RMK A01 T00181061  RH  056%=      5-min Rain = 0
KAM1 111409Z 36018KT 02/M06 A3028 RMK A01 T00171062  RH  056%=      5-min Rain = 0
KAM1 111410Z 35014G19KT 02/M06 A3028 RMK A01 T00161062  RH  056%=      5-min Rain = 0
KAM1 111411Z 35014KT 02/M06 A3028 RMK A01 T00161062  RH  056%=      5-min Rain = 0
KAM1 111412Z 00014KT 02/M06 A3028 RMK A01 T00161061  RH  057%=      5-min Rain = 0
KAM1 111413Z 35015KT 02/M06 A3028 RMK A01 T00151062  RH  057%=      5-min Rain = 0
KAM1 111414Z 36016KT 01/M06 A3028 RMK A01 T00141062  RH  057%=      5-min Rain = 0
KAM1 111415Z 36017KT 01/M06 A3028 RMK A01 T00141062  RH  057%=      5-min Rain = 0
KAM1 111416Z 00017KT 01/M06 A3028 RMK A01 T00141062  RH  057%=      5-min Rain = 0
KAM1 111417Z 35016KT 02/M06 A3028 RMK A01 T00151061  RH  057%=      5-min Rain = 0
KAM1 111418Z 36014KT 02/M06 A3028 RMK A01 T00171060  RH  057%=      5-min Rain = 0
KAM1 111419Z 35014KT 02/M06 A3028 RMK A01 T00181060  RH  056%=      5-min Rain = 0
KAM1 111420Z 00014KT 02/M06 A3028 RMK A01 T00201059  RH  056%=      5-min Rain = 0
KAM1 111421Z 00017KT 02/M06 A3028 RMK A01 T00201060  RH  055%=      5-min Rain = 0
KAM1 111422Z 36016KT 02/M06 A3028 RMK A01 T00211060  RH  055%=      5-min Rain = 0
KAM1 111423Z 36014KT 02/M06 A3028 RMK A01 T00221060  RH  055%=      5-min Rain = 0
KAM1 111424Z 36016KT 02/M06 A3028 RMK A01 T00231059  RH  055%=      5-min Rain = 0
KAM1 111425Z 36017KT 02/M06 A3028 RMK A01 T00231061  RH  054%=      5-min Rain = 0
KAM1 111426Z 36017KT 02/M06 A3028 RMK A01 T00221062  RH  054%=      5-min Rain = 0
KAM1 111427Z 36018KT 02/M06 A3028 RMK A01 T00201063  RH  054%=      5-min Rain = 0
KAM1 111428Z 00018G23KT 02/M06 A3028 RMK A01 T00191064  RH  054%=      5-min Rain = 0
KAM1 111429Z 00017KT 02/M06 A3028 RMK A01 T00191064  RH  054%=      5-min Rain = 0
KAM1 111430Z 36017KT 02/M06 A3028 RMK A01 T00171064  RH  055%=      5-min Rain = 0
KAM1 111431Z 36014G19KT 02/M07 A3028 RMK A01 T00171065  RH  055%=      5-min Rain = 0
KAM1 111432Z 00017KT 02/M06 A3028 RMK A01 T00171064  RH  055%=      5-min Rain = 0
KAM1 111433Z 00017KT 02/M07 A3028 RMK A01 T00161065  RH  055%=      5-min Rain = 0
KAM1 111434Z 00016KT 02/M07 A3028 RMK A01 T00161065  RH  055%=      5-min Rain = 0
KAM1 111435Z 01014KT 02/M06 A3028 RMK A01 T00161064  RH  055%=      5-min Rain = 0
KAM1 111436Z 36016G21KT 02/M06 A3028 RMK A01 T00181063  RH  055%=      5-min Rain = 0
KAM1 111437Z 00017KT 02/M06 A3028 RMK A01 T00181063  RH  055%=      5-min Rain = 0
KAM1 111438Z 00020KT 02/M06 A3028 RMK A01 T00191063  RH  054%=      5-min Rain = 0
KAM1 111439Z 01020KT 02/M06 A3028 RMK A01 T00211064  RH  053%=      5-min Rain = 0
KAM1 111440Z 01019KT 02/M06 A3028 RMK A01 T00221064  RH  053%=      5-min Rain = 0
KAM1 111441Z 00015KT 02/M06 A3028 RMK A01 T00241063  RH  053%=      5-min Rain = 0
KAM1 111442Z 01017KT 03/M06 A3028 RMK A01 T00271061  RH  052%=      5-min Rain = 0
KAM1 111443Z 01016KT 03/M06 A3028 RMK A01 T00281063  RH  051%=      5-min Rain = 0
KAM1 111444Z 36019KT 03/M06 A3028 RMK A01 T00291062  RH  051%=      5-min Rain = 0
KAM1 111445Z 36019KT 03/M06 A3028 RMK A01 T00291063  RH  050%=      5-min Rain = 0
KAM1 111446Z 36018KT 03/M06 A3028 RMK A01 T00291064  RH  050%=      5-min Rain = 0
KAM1 111447Z 35019KT 03/M07 A3028 RMK A01 T00301065  RH  050%=      5-min Rain = 0
KAM1 111448Z 35015KT 03/M07 A3028 RMK A01 T00291066  RH  050%=      5-min Rain = 0
KAM1 111449Z 36017KT 03/M06 A3028 RMK A01 T00321064  RH  049%=      5-min Rain = 0
KAM1 111450Z 36018KT 03/M07 A3028 RMK A01 T00321065  RH  049%=      5-min Rain = 0
KAM1 111451Z 00019KT 03/M07 A3028 RMK A01 T00291068  RH  049%=      5-min Rain = 0
KAM1 111452Z 00019KT 03/M07 A3028 RMK A01 T00271069  RH  049%=      5-min Rain = 0
KAM1 111453Z 01018KT 03/M07 A3029 RMK A01 T00261069  RH  049%=      5-min Rain = 0
KAM1 111454Z 01017G23KT 03/M07 A3029 RMK A01 T00271068  RH  050%=      5-min Rain = 0
KAM1 111455Z 00017KT 03/M07 A3029 RMK A01 T00281068  RH  049%=      5-min Rain = 0
KAM1 111456Z 36019KT 03/M07 A3029 RMK A01 T00281068  RH  049%=      5-min Rain = 0
KAM1 111457Z 36019KT 03/M07 A3029 RMK A01 T00271069  RH  049%=      5-min Rain = 0
KAM1 111458Z 00020KT 03/M07 A3028 RMK A01 T00281070  RH  049%=      5-min Rain = 0
KAM1 111459Z 00019G25KT 03/M07 A3028 RMK A01 T00281069  RH  049%=      5-min Rain = 0
KAM1 111500Z 36020KT 03/M07 A3028 RMK A01 T00311069  RH  048%=      5-min Rain = 0
KAM1 111501Z 36020KT 03/M07 A3028 RMK A01 T00311070  RH  047%=      5-min Rain = 0
KAM1 111502Z 00018KT 03/M07 A3028 RMK A01 T00311070  RH  047%=      5-min Rain = 0
KAM1 111503Z 35017G25KT 03/M07 A3028 RMK A01 T00311070  RH  047%=      5-min Rain = 0
KAM1 111504Z 36020KT 03/M07 A3028 RMK A01 T00321069  RH  047%=      5-min Rain = 0
KAM1 111505Z 36021KT 03/M07 A3028 RMK A01 T00321070  RH  047%=      5-min Rain = 0
KAM1 111506Z 00023KT 03/M07 A3028 RMK A01 T00321071  RH  047%=      5-min Rain = 0
KAM1 111507Z 01021KT 03/M07 A3028 RMK A01 T00311072  RH  046%=      5-min Rain = 0
KAM1 111508Z 00020KT 03/M07 A3029 RMK A01 T00301073  RH  046%=      5-min Rain = 0
KAM1 111509Z 00017KT 03/M07 A3029 RMK A01 T00301073  RH  047%=      5-min Rain = 0
KAM1 111510Z 01018KT 03/M07 A3029 RMK A01 T00311072  RH  047%=      5-min Rain = 0
KAM1 111511Z 00017KT 03/M07 A3029 RMK A01 T00311072  RH  047%=      5-min Rain = 0
KAM1 111512Z 00020KT 03/M07 A3029 RMK A01 T00311072  RH  047%=      5-min Rain = 0
KAM1 111513Z 00021KT 03/M07 A3029 RMK A01 T00311071  RH  047%=      5-min Rain = 0
KAM1 111514Z 01020KT 03/M07 A3029 RMK A01 T00301071  RH  047%=      5-min Rain = 0
KAM1 111515Z 01018G24KT 03/M07 A3029 RMK A01 T00301071  RH  048%=      5-min Rain = 0
KAM1 111516Z 36018KT 03/M07 A3029 RMK A01 T00301070  RH  048%=      5-min Rain = 0
KAM1 111517Z 36017KT 03/M07 A3029 RMK A01 T00311069  RH  048%=      5-min Rain = 0
KAM1 111518Z 35017KT 03/M07 A3029 RMK A01 T00321067  RH  048%=      5-min Rain = 0
KAM1 111519Z 35021KT 04/M07 A3029 RMK A01 T00351065  RH  048%=      5-min Rain = 0
KAM1 111520Z 35018KT 04/M07 A3029 RMK A01 T00351065  RH  048%=      5-min Rain = 0
KAM1 111521Z 36017KT 04/M07 A3029 RMK A01 T00361065  RH  048%=      5-min Rain = 0
KAM1 111522Z 36019G24KT 04/M06 A3029 RMK A01 T00381063  RH  048%=      5-min Rain = 0
KAM1 111523Z 00018KT 04/M06 A3029 RMK A01 T00391064  RH  047%=      5-min Rain = 0
KAM1 111524Z 00015KT 04/M06 A303 RMK A01 T00411062  RH  047%=      5-min Rain = 0
KAM1 111525Z 35018KT 05/M06 A3029 RMK A01 T00451061  RH  046%=      5-min Rain = 0
KAM1 111526Z 35021KT 04/M07 A3029 RMK A01 T00431065  RH  045%=      5-min Rain = 0
KAM1 111527Z 00016KT 04/M07 A303 RMK A01 T00391067  RH  046%=      5-min Rain = 0
KAM1 111528Z 00020KT 04/M07 A303 RMK A01 T00391066  RH  046%=      5-min Rain = 0
KAM1 111529Z 00019KT 04/M07 A303 RMK A01 T00371069  RH  046%=      5-min Rain = 0
KAM1 111530Z 01017G22KT 04/M07 A303 RMK A01 T00351070  RH  046%=      5-min Rain = 0
KAM1 111531Z 01019KT 04/M07 A303 RMK A01 T00351069  RH  047%=      5-min Rain = 0
KAM1 111532Z 00016KT 04/M07 A303 RMK A01 T00351069  RH  047%=      5-min Rain = 0
KAM1 111533Z 00019KT 04/M07 A303 RMK A01 T00351069  RH  046%=      5-min Rain = 0
KAM1 111534Z 01018KT 04/M07 A303 RMK A01 T00361070  RH  046%=      5-min Rain = 0
KAM1 111535Z 36018G23KT 04/M07 A303 RMK A01 T00361070  RH  046%=      5-min Rain = 0
KAM1 111536Z 00016KT 04/M07 A303 RMK A01 T00361071  RH  046%=      5-min Rain = 0
KAM1 111537Z 00019KT 04/M07 A303 RMK A01 T00371071  RH  045%=      5-min Rain = 0
KAM1 111538Z 36019KT 04/M07 A303 RMK A01 T00371071  RH  045%=      5-min Rain = 0
KAM1 111539Z 35017KT 04/M07 A303 RMK A01 T00361073  RH  045%=      5-min Rain = 0
KAM1 111540Z 36018KT 04/M07 A303 RMK A01 T00361074  RH  044%=      5-min Rain = 0
KAM1 111541Z 00016KT 04/M07 A303 RMK A01 T00361074  RH  044%=      5-min Rain = 0
KAM1 111542Z 36017KT 04/M07 A303 RMK A01 T00371072  RH  045%=      5-min Rain = 0
KAM1 111543Z 35017KT 04/M07 A303 RMK A01 T00381072  RH  044%=      5-min Rain = 0
KAM1 111544Z 35018KT 04/M07 A303 RMK A01 T00391073  RH  044%=      5-min Rain = 0
KAM1 111545Z 35017KT 04/M07 A303 RMK A01 T00391074  RH  043%=      5-min Rain = 0
KAM1 111546Z 00018KT 04/M08 A303 RMK A01 T00391075  RH  043%=      5-min Rain = 0
KAM1 111547Z 00020KT 04/M08 A303 RMK A01 T00401076  RH  043%=      5-min Rain = 0
KAM1 111548Z 36019G24KT 04/M08 A303 RMK A01 T00401078  RH  042%=      5-min Rain = 0
KAM1 111549Z 36019KT 04/M08 A303 RMK A01 T00421077  RH  042%=      5-min Rain = 0
KAM1 111550Z 36020KT 04/M08 A303 RMK A01 T00431077  RH  041%=      5-min Rain = 0
KAM1 111551Z 35019KT 04/M08 A303 RMK A01 T00441078  RH  041%=      5-min Rain = 0
KAM1 111552Z 36020G25KT 04/M08 A303 RMK A01 T00441078  RH  041%=      5-min Rain = 0
KAM1 111553Z 35019KT 04/M08 A303 RMK A01 T00441078  RH  041%=      5-min Rain = 0
KAM1 111554Z 35019KT 05/M08 A303 RMK A01 T00451079  RH  040%=      5-min Rain = 0
KAM1 111555Z 36019KT 05/M08 A303 RMK A01 T00461078  RH  040%=      5-min Rain = 0
KAM1 111556Z 35019KT 05/M08 A303 RMK A01 T00481078  RH  040%=      5-min Rain = 0
KAM1 111557Z 35018KT 05/M08 A303 RMK A01 T00491080  RH  039%=      5-min Rain = 0
KAM1 111558Z 35018KT 05/M08 A303 RMK A01 T00501080  RH  039%=      5-min Rain = 0
KAM1 111559Z 36020KT 05/M08 A3031 RMK A01 T00501080  RH  038%=      5-min Rain = 0
KAM1 111600Z 00018KT 05/M08 A3031 RMK A01 T00501080  RH  039%=      5-min Rain = 0
KAM1 111601Z 35015G21KT 05/M08 A3031 RMK A01 T00501078  RH  039%=      5-min Rain = 0
KAM1 111602Z 00017G22KT 05/M08 A3031 RMK A01 T00521078  RH  038%=      5-min Rain = 0
KAM1 111603Z 36016KT 05/M08 A3031 RMK A01 T00531080  RH  038%=      5-min Rain = 0
KAM1 111604Z 36017G22KT 05/M08 A3031 RMK A01 T00521081  RH  038%=      5-min Rain = 0
KAM1 111605Z 00015G20KT 05/M08 A3031 RMK A01 T00521081  RH  038%=      5-min Rain = 0
KAM1 111606Z 01019KT 05/M08 A3031 RMK A01 T00521083  RH  037%=      5-min Rain = 0
KAM1 111607Z 36018G23KT 05/M09 A3031 RMK A01 T00511085  RH  037%=      5-min Rain = 0
KAM1 111608Z 00019G25KT 05/M09 A3031 RMK A01 T00521087  RH  036%=      5-min Rain = 0
KAM1 111609Z 01016KT 05/M09 A3031 RMK A01 T00521089  RH  035%=      5-min Rain = 0
KAM1 111610Z 01016G22KT 05/M09 A3031 RMK A01 T00531089  RH  035%=      5-min Rain = 0
KAM1 111611Z 36020KT 05/M09 A3031 RMK A01 T00541089  RH  035%=      5-min Rain = 0
KAM1 111612Z 01018KT 05/M09 A3031 RMK A01 T00531090  RH  035%=      5-min Rain = 0
KAM1 111613Z 36018G23KT 05/M09 A3031 RMK A01 T00531090  RH  035%=      5-min Rain = 0
KAM1 111614Z 00015KT 05/M09 A3031 RMK A01 T00541089  RH  035%=      5-min Rain = 0
KAM1 111615Z 00018KT 06/M09 A3031 RMK A01 T00561089  RH  034%=      5-min Rain = 0
KAM1 111616Z 01019G25KT 06/M09 A3031 RMK A01 T00581092  RH  033%=      5-min Rain = 0
KAM1 111617Z 00020G25KT 06/M09 A3031 RMK A01 T00561094  RH  033%=      5-min Rain = 0
KAM1 111618Z 01018G23KT 06/M10 A3031 RMK A01 T00551095  RH  033%=      5-min Rain = 0
KAM1 111619Z 36019KT 06/M10 A3031 RMK A01 T00551095  RH  033%=      5-min Rain = 0
KAM1 111620Z 36021KT 06/M09 A3031 RMK A01 T00561094  RH  033%=      5-min Rain = 0
KAM1 111621Z 35021KT 06/M10 A3031 RMK A01 T00571095  RH  033%=      5-min Rain = 0
KAM1 111622Z 01018G23KT 06/M10 A3031 RMK A01 T00561095  RH  033%=      5-min Rain = 0
KAM1 111623Z 01019KT 06/M09 A3032 RMK A01 T00591093  RH  033%=      5-min Rain = 0
KAM1 111624Z 01017KT 06/M09 A3031 RMK A01 T00611093  RH  032%=      5-min Rain = 0
KAM1 111625Z 01019KT 06/M09 A3031 RMK A01 T00641092  RH  032%=      5-min Rain = 0
KAM1 111626Z 36016KT 07/M09 A3031 RMK A01 T00651093  RH  031%=      5-min Rain = 0
KAM1 111627Z 35019KT 07/M09 A3031 RMK A01 T00651093  RH  031%=      5-min Rain = 0
KAM1 111628Z 01016KT 07/M09 A3031 RMK A01 T00651094  RH  031%=      5-min Rain = 0
KAM1 111629Z 00018G23KT 07/M10 A3031 RMK A01 T00661095  RH  031%=      5-min Rain = 0
KAM1 111630Z 01019KT 07/M10 A3031 RMK A01 T00651096  RH  031%=      5-min Rain = 0
KAM1 111631Z 01019KT 07/M10 A3031 RMK A01 T00651096  RH  031%=      5-min Rain = 0
KAM1 111632Z 01017G22KT 06/M10 A3031 RMK A01 T00631098  RH  031%=      5-min Rain = 0
KAM1 111633Z 00016G21KT 06/M10 A3031 RMK A01 T00641096  RH  031%=      5-min Rain = 0
KAM1 111634Z 01018KT 07/M10 A3031 RMK A01 T00661095  RH  031%=      5-min Rain = 0
KAM1 111635Z 01019KT 07/M10 A3031 RMK A01 T00651096  RH  030%=      5-min Rain = 0
KAM1 111636Z 01018KT 06/M10 A3031 RMK A01 T00641097  RH  031%=      5-min Rain = 0
KAM1 111637Z 01016KT 06/M10 A3031 RMK A01 T00641097  RH  031%=      5-min Rain = 0
KAM1 111638Z 01016G22KT 06/M10 A3031 RMK A01 T00641097  RH  031%=      5-min Rain = 0
KAM1 111639Z 01018KT 06/M10 A3031 RMK A01 T00641097  RH  031%=      5-min Rain = 0
KAM1 111640Z 02016G21KT 06/M10 A3031 RMK A01 T00621099  RH  030%=      5-min Rain = 0
KAM1 111641Z 01017KT 06/M10 A3031 RMK A01 T00611098  RH  031%=      5-min Rain = 0
KAM1 111642Z 00015KT 06/M10 A3031 RMK A01 T00611099  RH  031%=      5-min Rain = 0
KAM1 111643Z 01016G23KT 06/M10 A3031 RMK A01 T00641096  RH  031%=      5-min Rain = 0
KAM1 111644Z 01021KT 07/M10 A3031 RMK A01 T00661097  RH  030%=      5-min Rain = 0
KAM1 111645Z 02019G24KT 07/M10 A3031 RMK A01 T00651100  RH  030%=      5-min Rain = 0
KAM1 111646Z 01018G23KT 06/M10 A3031 RMK A01 T00641101  RH  030%=      5-min Rain = 0
KAM1 111647Z 00018G23KT 06/M10 A3031 RMK A01 T00631100  RH  030%=      5-min Rain = 0
KAM1 111648Z 00021KT 06/M10 A3031 RMK A01 T00631100  RH  030%=      5-min Rain = 0
KAM1 111649Z 01019KT 06/M10 A3031 RMK A01 T00621101  RH  030%=      5-min Rain = 0
KAM1 111650Z 01019KT 06/M10 A3031 RMK A01 T00621100  RH  030%=      5-min Rain = 0
KAM1 111651Z 01019KT 06/M10 A3032 RMK A01 T00631100  RH  030%=      5-min Rain = 0
KAM1 111652Z 01017KT 06/M10 A3032 RMK A01 T00611102  RH  030%=      5-min Rain = 0
KAM1 111653Z 36016KT 06/M10 A3031 RMK A01 T00611102  RH  030%=      5-min Rain = 0
KAM1 111654Z 36021KT 06/M10 A3031 RMK A01 T00611102  RH  030%=      5-min Rain = 0
KAM1 111655Z 35021KT 06/M10 A3032 RMK A01 T00611102  RH  030%=      5-min Rain = 0
KAM1 111656Z 01016KT 06/M10 A3032 RMK A01 T00611102  RH  030%=      5-min Rain = 0
KAM1 111657Z 36018KT 06/M10 A3032 RMK A01 T00611101  RH  030%=      5-min Rain = 0
KAM1 111658Z 36018G24KT 06/M10 A3031 RMK A01 T00611101  RH  030%=      5-min Rain = 0
KAM1 111659Z 36020KT 06/M10 A3031 RMK A01 T00631100  RH  030%=      5-min Rain = 0
KAM1 111700Z 35016KT 06/M10 A3031 RMK A01 T00631100  RH  030%=      5-min Rain = 0
KAM1 111701Z 36020G25KT 07/M10 A3031 RMK A01 T00661098  RH  030%=      5-min Rain = 0
KAM1 111702Z 01020KT 07/M10 A3031 RMK A01 T00691098  RH  029%=      5-min Rain = 0
KAM1 111703Z 01020G25KT 07/M10 A3032 RMK A01 T00711098  RH  029%=      5-min Rain = 0
KAM1 111704Z 36020KT 07/M10 A3032 RMK A01 T00711099  RH  029%=      5-min Rain = 0
KAM1 111705Z 01019KT 07/M10 A3032 RMK A01 T00721100  RH  028%=      5-min Rain = 0
KAM1 111706Z 01020KT 07/M10 A3032 RMK A01 T00741098  RH  028%=      5-min Rain = 0
KAM1 111707Z 00018G24KT 08/M10 A3032 RMK A01 T00781097  RH  028%=      5-min Rain = 0
KAM1 111708Z 00019KT 08/M10 A3032 RMK A01 T00781100  RH  027%=      5-min Rain = 0
KAM1 111709Z 00021KT 08/M10 A3032 RMK A01 T00781101  RH  027%=      5-min Rain = 0
KAM1 111710Z 36017KT 08/M10 A3032 RMK A01 T00781101  RH  027%=      5-min Rain = 0
KAM1 111711Z 35017G22KT 08/M10 A3032 RMK A01 T00801100  RH  027%=      5-min Rain = 0
KAM1 111712Z 00017KT 08/M10 A3032 RMK A01 T00781104  RH  026%=      5-min Rain = 0
KAM1 111713Z 01019G25KT 08/M10 A3032 RMK A01 T00771104  RH  026%=      5-min Rain = 0
KAM1 111714Z 00019G27KT 08/M10 A3032 RMK A01 T00771103  RH  027%=      5-min Rain = 0
KAM1 111715Z 01020G27KT 08/M10 A3032 RMK A01 T00791104  RH  026%=      5-min Rain = 0
KAM1 111716Z 00017KT 08/M11 A3032 RMK A01 T00771106  RH  026%=      5-min Rain = 0
KAM1 111717Z 00019G25KT 08/M10 A3032 RMK A01 T00811103  RH  026%=      5-min Rain = 0
KAM1 111718Z 36019KT 08/M10 A3032 RMK A01 T00821104  RH  026%=      5-min Rain = 0
KAM1 111719Z 00017G24KT 08/M11 A3032 RMK A01 T00821105  RH  025%=      5-min Rain = 0
KAM1 111720Z 00018KT 08/M10 A3032 RMK A01 T00831104  RH  025%=      5-min Rain = 0
KAM1 111721Z 36020G25KT 08/M11 A3032 RMK A01 T00811108  RH  025%=      5-min Rain = 0
KAM1 111722Z 35023KT 08/M11 A3032 RMK A01 T00791109  RH  025%=      5-min Rain = 0
KAM1 111723Z 36020KT 08/M11 A3032 RMK A01 T00771110  RH  025%=      5-min Rain = 0
KAM1 111724Z 35019G24KT 08/M11 A3032 RMK A01 T00771108  RH  026%=      5-min Rain = 0
KAM1 111725Z 35019G24KT 08/M11 A3032 RMK A01 T00791107  RH  025%=      5-min Rain = 0
KAM1 111726Z 00018G23KT 08/M11 A3032 RMK A01 T00791109  RH  025%=      5-min Rain = 0
KAM1 111727Z 36017KT 08/M11 A3032 RMK A01 T00791109  RH  025%=      5-min Rain = 0
KAM1 111728Z 35017KT 08/M11 A3032 RMK A01 T00801107  RH  025%=      5-min Rain = 0
KAM1 111729Z 34019KT 08/M11 A3032 RMK A01 T00811108  RH  025%=      5-min Rain = 0
KAM1 111730Z 35020G26KT 08/M11 A3032 RMK A01 T00811107  RH  025%=      5-min Rain = 0
KAM1 111731Z 35021KT 08/M11 A3032 RMK A01 T00801108  RH  025%=      5-min Rain = 0
KAM1 111732Z 35021KT 08/M11 A3032 RMK A01 T00761112  RH  025%=      5-min Rain = 0
KAM1 111733Z 36020KT 07/M11 A3032 RMK A01 T00721114  RH  025%=      5-min Rain = 0
KAM1 111734Z 35020KT 07/M11 A3032 RMK A01 T00701113  RH  026%=      5-min Rain = 0
KAM1 111735Z 35020KT 07/M11 A3031 RMK A01 T00721110  RH  026%=      5-min Rain = 0
KAM1 111736Z 00019KT 08/M11 A3031 RMK A01 T00771106  RH  026%=      5-min Rain = 0
KAM1 111737Z 00019KT 08/M11 A3031 RMK A01 T00811106  RH  025%=      5-min Rain = 0
KAM1 111738Z 00020G26KT 09/M11 A3031 RMK A01 T00851105  RH  025%=      5-min Rain = 0
KAM1 111739Z 01019G28KT 09/M10 A3031 RMK A01 T00871104  RH  025%=      5-min Rain = 0
KAM1 111740Z 01023KT 09/M10 A3031 RMK A01 T00911104  RH  024%=      5-min Rain = 0
KAM1 111741Z 01023G29KT 09/M11 A3031 RMK A01 T00891109  RH  024%=      5-min Rain = 0
KAM1 111742Z 01018KT 09/M11 A3031 RMK A01 T00881108  RH  024%=      5-min Rain = 0
KAM1 111743Z 01020KT 09/M11 A3031 RMK A01 T00881108  RH  024%=      5-min Rain = 0
KAM1 111744Z 01022KT 09/M11 A3031 RMK A01 T00881108  RH  024%=      5-min Rain = 0
KAM1 111745Z 01020KT 08/M11 A3031 RMK A01 T00841113  RH  023%=      5-min Rain = 0
KAM1 111746Z 02019G24KT 08/M11 A3031 RMK A01 T00831112  RH  024%=      5-min Rain = 0
KAM1 111747Z 01019KT 09/M11 A3031 RMK A01 T00851111  RH  024%=      5-min Rain = 0
KAM1 111748Z 01023KT 09/M11 A3031 RMK A01 T00851112  RH  023%=      5-min Rain = 0
KAM1 111749Z 01024KT 09/M11 A3031 RMK A01 T00851113  RH  023%=      5-min Rain = 0
KAM1 111750Z 01022KT 08/M11 A3031 RMK A01 T00841113  RH  023%=      5-min Rain = 0
KAM1 111751Z 01021KT 08/M11 A3031 RMK A01 T00831113  RH  024%=      5-min Rain = 0
KAM1 111752Z 01021KT 08/M11 A3031 RMK A01 T00831113  RH  024%=      5-min Rain = 0
KAM1 111753Z 01019G24KT 08/M11 A3031 RMK A01 T00841113  RH  023%=      5-min Rain = 0
KAM1 111754Z 01016G21KT 09/M11 A3031 RMK A01 T00861112  RH  023%=      5-min Rain = 0
KAM1 111755Z 01014G20KT 09/M11 A3031 RMK A01 T00871111  RH  023%=      5-min Rain = 0
KAM1 111756Z 00016KT 09/M11 A3031 RMK A01 T00891108  RH  023%=      5-min Rain = 0
KAM1 111757Z 35019G26KT 09/M11 A3031 RMK A01 T00921108  RH  023%=      5-min Rain = 0
KAM1 111758Z 36021G26KT 09/M11 A3031 RMK A01 T00921109  RH  023%=      5-min Rain = 0
KAM1 111759Z 36024KT 09/M11 A3031 RMK A01 T00921109  RH  023%=      5-min Rain = 0
KAM1 111800Z 00020KT 09/M11 A3031 RMK A01 T00881113  RH  023%=      5-min Rain = 0
KAM1 111801Z 36016G24KT 09/M11 A3031 RMK A01 T00861112  RH  023%=      5-min Rain = 0
KAM1 111802Z 00018G24KT 09/M11 A3031 RMK A01 T00871109  RH  024%=      5-min Rain = 0
KAM1 111803Z 35022G27KT 09/M11 A3031 RMK A01 T00881110  RH  023%=      5-min Rain = 0
KAM1 111804Z 00021G26KT 09/M11 A3031 RMK A01 T00871110  RH  023%=      5-min Rain = 0
KAM1 111805Z 00020KT 09/M11 A3031 RMK A01 T00861112  RH  023%=      5-min Rain = 0
KAM1 111806Z 01016G24KT 09/M11 A3031 RMK A01 T00881108  RH  024%=      5-min Rain = 0
KAM1 111807Z 01019G27KT 09/M11 A3031 RMK A01 T00941105  RH  023%=      5-min Rain = 0
KAM1 111808Z 01021G28KT 09/M11 A3031 RMK A01 T00921109  RH  023%=      5-min Rain = 0
KAM1 111809Z 01023KT 09/M11 A3031 RMK A01 T00911111  RH  023%=      5-min Rain = 0
KAM1 111810Z 01023KT 09/M11 A3031 RMK A01 T00881114  RH  023%=      5-min Rain = 0
KAM1 111811Z 01019KT 09/M11 A3031 RMK A01 T00871113  RH  023%=      5-min Rain = 0
KAM1 111812Z 02019KT 09/M11 A3031 RMK A01 T00881113  RH  023%=      5-min Rain = 0
KAM1 111813Z 02019G24KT 09/M12 A3031 RMK A01 T00851115  RH  023%=      5-min Rain = 0
KAM1 111814Z 36020KT 09/M11 A3031 RMK A01 T00851114  RH  023%=      5-min Rain = 0
KAM1 111815Z 01016KT 09/M11 A3031 RMK A01 T00861113  RH  023%=      5-min Rain = 0
KAM1 111816Z 01021G26KT 09/M11 A3031 RMK A01 T00901110  RH  023%=      5-min Rain = 0
KAM1 111817Z 02020G25KT 09/M11 A3031 RMK A01 T00901113  RH  022%=      5-min Rain = 0
KAM1 111818Z 00018G24KT 09/M12 A3031 RMK A01 T00851117  RH  022%=      5-min Rain = 0
KAM1 111819Z 00017KT 09/M11 A3031 RMK A01 T00851114  RH  023%=      5-min Rain = 0
KAM1 111820Z 01018KT 09/M11 A3031 RMK A01 T00891111  RH  023%=      5-min Rain = 0
KAM1 111821Z 00018KT 09/M11 A3031 RMK A01 T00931108  RH  023%=      5-min Rain = 0
KAM1 111822Z 36019KT 09/M11 A3031 RMK A01 T00941111  RH  022%=      5-min Rain = 0
KAM1 111823Z 01018KT 09/M11 A3031 RMK A01 T00911113  RH  022%=      5-min Rain = 0
KAM1 111824Z 01017KT 09/M11 A3031 RMK A01 T00931110  RH  023%=      5-min Rain = 0
KAM1 111825Z 01018KT 10/M11 A3031 RMK A01 T01001107  RH  022%=      5-min Rain = 0
KAM1 111826Z 35020KT 10/M11 A303 RMK A01 T01001111  RH  021%=      5-min Rain = 0
KAM1 111827Z 35020KT 10/M11 A3031 RMK A01 T00981112  RH  022%=      5-min Rain = 0
KAM1 111828Z 36018KT 10/M11 A3031 RMK A01 T00981111  RH  022%=      5-min Rain = 0
KAM1 111829Z 36020KT 10/M11 A303 RMK A01 T00991110  RH  022%=      5-min Rain = 0
KAM1 111830Z 36018G27KT 10/M11 A303 RMK A01 T01021108  RH  022%=      5-min Rain = 0
KAM1 111831Z 35019G24KT 11/M11 A3031 RMK A01 T01081107  RH  021%=      5-min Rain = 0
KAM1 111832Z 36021G29KT 11/M11 A303 RMK A01 T01091110  RH  020%=      5-min Rain = 0
KAM1 111833Z 36022KT 11/M12 A3031 RMK A01 T01061115  RH  020%=      5-min Rain = 0
KAM1 111834Z 36019KT 10/M12 A3031 RMK A01 T01011118  RH  020%=      5-min Rain = 0
KAM1 111835Z 36019KT 10/M12 A303 RMK A01 T00971117  RH  021%=      5-min Rain = 0
KAM1 111836Z 01015G20KT 10/M12 A303 RMK A01 T00961115  RH  021%=      5-min Rain = 0
KAM1 111837Z 00016G22KT 10/M11 A303 RMK A01 T01001111  RH  021%=      5-min Rain = 0
KAM1 111838Z 35018KT 10/M11 A303 RMK A01 T01021113  RH  021%=      5-min Rain = 0
KAM1 111839Z 00018KT 10/M12 A303 RMK A01 T01011116  RH  020%=      5-min Rain = 0
KAM1 111840Z 01020KT 10/M12 A303 RMK A01 T00971118  RH  021%=      5-min Rain = 0
KAM1 111841Z 01017KT 10/M12 A303 RMK A01 T00951116  RH  021%=      5-min Rain = 0
KAM1 111842Z 36017KT 10/M11 A303 RMK A01 T01001110  RH  022%=      5-min Rain = 0
KAM1 111843Z 35019KT 10/M11 A303 RMK A01 T01011114  RH  021%=      5-min Rain = 0
KAM1 111844Z 35021KT 10/M12 A303 RMK A01 T00981117  RH  021%=      5-min Rain = 0
KAM1 111845Z 01020G27KT 10/M12 A303 RMK A01 T00981115  RH  021%=      5-min Rain = 0
KAM1 111846Z 01021KT 10/M12 A303 RMK A01 T00991115  RH  021%=      5-min Rain = 0
KAM1 111847Z 36018KT 10/M12 A303 RMK A01 T00991115  RH  021%=      5-min Rain = 0
KAM1 111848Z 36019G26KT 10/M12 A303 RMK A01 T00991115  RH  021%=      5-min Rain = 0
KAM1 111849Z 36020KT 10/M11 A303 RMK A01 T01011113  RH  021%=      5-min Rain = 0
KAM1 111850Z 36018KT 10/M12 A303 RMK A01 T01031115  RH  020%=      5-min Rain = 0
KAM1 111851Z 35019KT 10/M12 A303 RMK A01 T01021116  RH  020%=      5-min Rain = 0
KAM1 111852Z 35017KT 10/M12 A303 RMK A01 T01021116  RH  020%=      5-min Rain = 0
KAM1 111853Z 35017KT 11/M11 A3029 RMK A01 T01051114  RH  020%=      5-min Rain = 0
KAM1 111854Z 00019G25KT 11/M11 A3029 RMK A01 T01071114  RH  020%=      5-min Rain = 0
KAM1 111855Z 02019G26KT 11/M11 A303 RMK A01 T01071113  RH  020%=      5-min Rain = 0
KAM1 111856Z 01023KT 11/M12 A303 RMK A01 T01081116  RH  020%=      5-min Rain = 0
KAM1 111857Z 00020KT 11/M12 A303 RMK A01 T01051119  RH  019%=      5-min Rain = 0
KAM1 111858Z 35022KT 11/M12 A303 RMK A01 T01051116  RH  020%=      5-min Rain = 0
KAM1 111859Z 35022G27KT 10/M12 A303 RMK A01 T01041116  RH  020%=      5-min Rain = 0
KAM1 111900Z 36018KT 10/M12 A303 RMK A01 T01031117  RH  020%=      5-min Rain = 0
KAM1 111901Z 00017G23KT 10/M11 A303 RMK A01 T01041114  RH  020%=      5-min Rain = 0
KAM1 111902Z 00013KT 11/M11 A303 RMK A01 T01071113  RH  020%=      5-min Rain = 0
KAM1 111903Z 35016KT 11/M11 A303 RMK A01 T01101111  RH  020%=      5-min Rain = 0
KAM1 111904Z 36014KT 11/M11 A303 RMK A01 T01111112  RH  020%=      5-min Rain = 0
KAM1 111905Z 35016KT 11/M11 A3029 RMK A01 T01131112  RH  020%=      5-min Rain = 0
KAM1 111906Z 36013KT 11/M11 A3029 RMK A01 T01121114  RH  019%=      5-min Rain = 0
KAM1 111907Z 00018G26KT 12/M11 A3029 RMK A01 T01151111  RH  019%=      5-min Rain = 0
KAM1 111908Z 00017KT 12/M11 A3029 RMK A01 T01171112  RH  019%=      5-min Rain = 0
KAM1 111909Z 00020G25KT 12/M11 A3029 RMK A01 T01171113  RH  019%=      5-min Rain = 0
KAM1 111910Z 01023KT 11/M12 A303 RMK A01 T01121120  RH  018%=      5-min Rain = 0
KAM1 111911Z 02019KT 11/M12 A3029 RMK A01 T01061121  RH  019%=      5-min Rain = 0
KAM1 111912Z 01019G25KT 11/M12 A3029 RMK A01 T01051118  RH  019%=      5-min Rain = 0
KAM1 111913Z 35024KT 11/M12 A3029 RMK A01 T01091115  RH  019%=      5-min Rain = 0
KAM1 111914Z 35018G23KT 11/M12 A3029 RMK A01 T01101117  RH  019%=      5-min Rain = 0
KAM1 111915Z 35019KT 11/M12 A3029 RMK A01 T01121116  RH  019%=      5-min Rain = 0
KAM1 111916Z 35019G24KT 11/M12 A3029 RMK A01 T01131117  RH  019%=      5-min Rain = 0
KAM1 111917Z 35023KT 11/M12 A3029 RMK A01 T01111120  RH  019%=      5-min Rain = 0
KAM1 111918Z 36021KT 11/M12 A3029 RMK A01 T01081122  RH  019%=      5-min Rain = 0
KAM1 111919Z 36019KT 11/M12 A3029 RMK A01 T01071121  RH  019%=      5-min Rain = 0
KAM1 111920Z 00018KT 11/M12 A3029 RMK A01 T01061119  RH  019%=      5-min Rain = 0
KAM1 111921Z 01020KT 11/M12 A3029 RMK A01 T01061119  RH  019%=      5-min Rain = 0
KAM1 111922Z 01019KT 10/M12 A3029 RMK A01 T01031122  RH  019%=      5-min Rain = 0
KAM1 111923Z 00018KT 10/M12 A3029 RMK A01 T01001122  RH  020%=      5-min Rain = 0
KAM1 111924Z 00014KT 10/M12 A3029 RMK A01 T00981121  RH  020%=      5-min Rain = 0
KAM1 111925Z 36015KT 10/M12 A3029 RMK A01 T00991118  RH  020%=      5-min Rain = 0
KAM1 111926Z 35014KT 10/M12 A3029 RMK A01 T01041116  RH  020%=      5-min Rain = 0
KAM1 111927Z 34016G21KT 11/M12 A3029 RMK A01 T01061116  RH  020%=      5-min Rain = 0
KAM1 111928Z 36017G23KT 11/M12 A3029 RMK A01 T01061117  RH  020%=      5-min Rain = 0
KAM1 111929Z 35019G24KT 11/M12 A3029 RMK A01 T01061117  RH  020%=      5-min Rain = 0
KAM1 111930Z 35019G24KT 10/M12 A3029 RMK A01 T01021119  RH  020%=      5-min Rain = 0
KAM1 111931Z 35020G25KT 10/M12 A3029 RMK A01 T01001119  RH  020%=      5-min Rain = 0
KAM1 111932Z 35015KT 10/M12 A3029 RMK A01 T00971119  RH  020%=      5-min Rain = 0
KAM1 111933Z 35013KT 10/M12 A3029 RMK A01 T00961118  RH  021%=      5-min Rain = 0
KAM1 111934Z 01010G15KT 10/M12 A3029 RMK A01 T00981115  RH  021%=      5-min Rain = 0
KAM1 111935Z 02017G22KT 10/M11 A3029 RMK A01 T01031112  RH  021%=      5-min Rain = 0
KAM1 111936Z 02017KT 10/M12 A3029 RMK A01 T01021115  RH  020%=      5-min Rain = 0
KAM1 111937Z 01019KT 10/M12 A3029 RMK A01 T01001116  RH  021%=      5-min Rain = 0
KAM1 111938Z 35017KT 10/M11 A3029 RMK A01 T01001114  RH  021%=      5-min Rain = 0
KAM1 111939Z 35017KT 10/M11 A3029 RMK A01 T01011113  RH  021%=      5-min Rain = 0
KAM1 111940Z 36012KT 10/M11 A3029 RMK A01 T01001113  RH  021%=      5-min Rain = 0
KAM1 111941Z 01017KT 10/M11 A3029 RMK A01 T01021112  RH  021%=      5-min Rain = 0
KAM1 111942Z 35016KT 10/M11 A3029 RMK A01 T01011113  RH  021%=      5-min Rain = 0
KAM1 111943Z 36018G23KT 10/M11 A3029 RMK A01 T01011112  RH  021%=      5-min Rain = 0
KAM1 111944Z 00017KT 10/M11 A3029 RMK A01 T01011111  RH  021%=      5-min Rain = 0
KAM1 111945Z 01017KT 10/M11 A3029 RMK A01 T01001112  RH  021%=      5-min Rain = 0
KAM1 111946Z 01017KT 10/M11 A3029 RMK A01 T00991113  RH  021%=      5-min Rain = 0
KAM1 111947Z 01016G21KT 10/M11 A3029 RMK A01 T00981112  RH  021%=      5-min Rain = 0
KAM1 111948Z 01015KT 10/M11 A3029 RMK A01 T00971113  RH  022%=      5-min Rain = 0
KAM1 111949Z 35016KT 10/M11 A3029 RMK A01 T00971112  RH  022%=      5-min Rain = 0
KAM1 111950Z 35018KT 10/M11 A3029 RMK A01 T00991109  RH  022%=      5-min Rain = 0
KAM1 111951Z 00019KT 10/M11 A3029 RMK A01 T01021108  RH  022%=      5-min Rain = 0
KAM1 111952Z 36016KT 10/M11 A3029 RMK A01 T01021109  RH  021%=      5-min Rain = 0
KAM1 111953Z 36015KT 10/M11 A3029 RMK A01 T01001111  RH  021%=      5-min Rain = 0
KAM1 111954Z 00014KT 10/M11 A3029 RMK A01 T00991111  RH  021%=      5-min Rain = 0
KAM1 111955Z 01017KT 10/M11 A3029 RMK A01 T01011109  RH  022%=      5-min Rain = 0
KAM1 111956Z 02017KT 10/M11 A3029 RMK A01 T01031110  RH  021%=      5-min Rain = 0
KAM1 111957Z 02015G20KT 10/M11 A3029 RMK A01 T01021110  RH  021%=      5-min Rain = 0
KAM1 111958Z 03016KT 10/M11 A3029 RMK A01 T01021110  RH  021%=      5-min Rain = 0
KAM1 111959Z 02013KT 10/M11 A3029 RMK A01 T01031109  RH  021%=      5-min Rain = 0
KAM1 112000Z 01014KT 10/M11 A3029 RMK A01 T01021110  RH  021%=      5-min Rain = 0
KAM1 112001Z 36014KT 10/M11 A3029 RMK A01 T01011110  RH  021%=      5-min Rain = 0
KAM1 112002Z 00014KT 10/M11 A3029 RMK A01 T01001110  RH  021%=      5-min Rain = 0
KAM1 112003Z 01014G19KT 10/M11 A3029 RMK A01 T01011109  RH  022%=      5-min Rain = 0
KAM1 112004Z 00017KT 11/M11 A3029 RMK A01 T01051107  RH  021%=      5-min Rain = 0
KAM1 112005Z 36015KT 10/M11 A3029 RMK A01 T01041110  RH  021%=      5-min Rain = 0
KAM1 112006Z 36015G22KT 10/M11 A3029 RMK A01 T01041108  RH  021%=      5-min Rain = 0
KAM1 112007Z 35016KT 11/M11 A3029 RMK A01 T01061107  RH  021%=      5-min Rain = 0
KAM1 112008Z 35017KT 11/M11 A3029 RMK A01 T01061107  RH  021%=      5-min Rain = 0
KAM1 112009Z 00018KT 10/M11 A3029 RMK A01 T01041108  RH  021%=      5-min Rain = 0
KAM1 112010Z 36017G22KT 10/M11 A3029 RMK A01 T01021109  RH  021%=      5-min Rain = 0
KAM1 112011Z 00014KT 10/M11 A3029 RMK A01 T01011108  RH  022%=      5-min Rain = 0
KAM1 112012Z 01018KT 10/M11 A3029 RMK A01 T01041106  RH  022%=      5-min Rain = 0
KAM1 112013Z 01013KT 11/M11 A3029 RMK A01 T01051107  RH  021%=      5-min Rain = 0
KAM1 112014Z 02013KT 11/M11 A3029 RMK A01 T01051106  RH  022%=      5-min Rain = 0
KAM1 112015Z 36011KT 11/M11 A3029 RMK A01 T01061106  RH  021%=      5-min Rain = 0
KAM1 112016Z 34011KT 11/M11 A3029 RMK A01 T01051105  RH  022%=      5-min Rain = 0
KAM1 112017Z 35017KT 11/M10 A3029 RMK A01 T01091102  RH  022%=      5-min Rain = 0
KAM1 112018Z 34015KT 11/M11 A3029 RMK A01 T01091105  RH  021%=      5-min Rain = 0
KAM1 112019Z 35013G18KT 11/M11 A3029 RMK A01 T01071106  RH  021%=      5-min Rain = 0
KAM1 112020Z 36016G22KT 11/M10 A3029 RMK A01 T01101103  RH  021%=      5-min Rain = 0
KAM1 112021Z 35015KT 11/M11 A3029 RMK A01 T01101105  RH  021%=      5-min Rain = 0
KAM1 112022Z 34012G17KT 11/M11 A3028 RMK A01 T01071106  RH  021%=      5-min Rain = 0
KAM1 112023Z 35013KT 11/M11 A3028 RMK A01 T01081105  RH  021%=      5-min Rain = 0
KAM1 112024Z 34016G22KT 11/M11 A3028 RMK A01 T01091105  RH  021%=      5-min Rain = 0
KAM1 112025Z 34015G21KT 11/M11 A3028 RMK A01 T01111105  RH  021%=      5-min Rain = 0
KAM1 112026Z 35018KT 11/M11 A3028 RMK A01 T01111105  RH  021%=      5-min Rain = 0
KAM1 112027Z 35013KT 11/M11 A3028 RMK A01 T01111105  RH  021%=      5-min Rain = 0
KAM1 112028Z 35013KT 11/M10 A3028 RMK A01 T01111104  RH  021%=      5-min Rain = 0
KAM1 112029Z 35011KT 11/M10 A3028 RMK A01 T01121103  RH  021%=      5-min Rain = 0
KAM1 112030Z 35012KT 11/M10 A3028 RMK A01 T01141103  RH  021%=      5-min Rain = 0
KAM1 112031Z 35014KT 11/M11 A3028 RMK A01 T01131105  RH  021%=      5-min Rain = 0
KAM1 112032Z 34013KT 11/M11 A3028 RMK A01 T01101106  RH  021%=      5-min Rain = 0
KAM1 112033Z 35011KT 11/M11 A3028 RMK A01 T01071106  RH  021%=      5-min Rain = 0
KAM1 112034Z 36013KT 11/M11 A3028 RMK A01 T01071105  RH  021%=      5-min Rain = 0
KAM1 112035Z 00013KT 11/M10 A3028 RMK A01 T01081104  RH  021%=      5-min Rain = 0
KAM1 112036Z 01016KT 11/M10 A3028 RMK A01 T01121102  RH  021%=      5-min Rain = 0
KAM1 112037Z 01011KT 11/M10 A3028 RMK A01 T01111104  RH  021%=      5-min Rain = 0
KAM1 112038Z 00012KT 11/M11 A3028 RMK A01 T01101105  RH  021%=      5-min Rain = 0
KAM1 112039Z 36011KT 11/M10 A3028 RMK A01 T01101103  RH  021%=      5-min Rain = 0
KAM1 112040Z 35011KT 11/M10 A3028 RMK A01 T01111104  RH  021%=      5-min Rain = 0
KAM1 112041Z 35010KT 11/M10 A3028 RMK A01 T01111104  RH  021%=      5-min Rain = 0
KAM1 112042Z 35014KT 12/M10 A3028 RMK A01 T01151102  RH  021%=      5-min Rain = 0
KAM1 112043Z 36010KT 12/M11 A3028 RMK A01 T01151105  RH  020%=      5-min Rain = 0
KAM1 112044Z 34013KT 12/M11 A3028 RMK A01 T01151105  RH  020%=      5-min Rain = 0
KAM1 112045Z 35014KT 12/M11 A3028 RMK A01 T01151108  RH  020%=      5-min Rain = 0
KAM1 112046Z 00010KT 11/M11 A3028 RMK A01 T01131108  RH  020%=      5-min Rain = 0
KAM1 112047Z 02015G20KT 12/M11 A3028 RMK A01 T01161107  RH  020%=      5-min Rain = 0
KAM1 112048Z 02018KT 12/M12 A3028 RMK A01 T01171115  RH  019%=      5-min Rain = 0
KAM1 112049Z 02018G23KT 12/M12 A3028 RMK A01 T01151119  RH  018%=      5-min Rain = 0
KAM1 112050Z 00018KT 11/M12 A3028 RMK A01 T01141119  RH  018%=      5-min Rain = 0
KAM1 112051Z 01017KT 11/M12 A3028 RMK A01 T01141120  RH  018%=      5-min Rain = 0
KAM1 112052Z 36016KT 11/M12 A3028 RMK A01 T01141117  RH  019%=      5-min Rain = 0
KAM1 112053Z 01013KT 12/M12 A3028 RMK A01 T01151117  RH  019%=      5-min Rain = 0
KAM1 112054Z 00014KT 12/M12 A3028 RMK A01 T01171117  RH  018%=      5-min Rain = 0
KAM1 112055Z 01018G23KT 12/M12 A3028 RMK A01 T01191123  RH  017%=      5-min Rain = 0
KAM1 112056Z 01014G19KT 12/M13 A3028 RMK A01 T01181129  RH  016%=      5-min Rain = 0
KAM1 112057Z 01015G20KT 12/M13 A3028 RMK A01 T01171128  RH  017%=      5-min Rain = 0
KAM1 112058Z 01013KT 12/M13 A3028 RMK A01 T01171127  RH  017%=      5-min Rain = 0
KAM1 112059Z 02012KT 12/M13 A3028 RMK A01 T01211126  RH  017%=      5-min Rain = 0
KAM1 112100Z 01011KT 12/M13 A3028 RMK A01 T01231129  RH  016%=      5-min Rain = 0
KAM1 112101Z 35012KT 12/M13 A3028 RMK A01 T01231128  RH  016%=      5-min Rain = 0
KAM1 112102Z 00016KT 12/M12 A3028 RMK A01 T01221122  RH  017%=      5-min Rain = 0
KAM1 112103Z 36015KT 12/M12 A3028 RMK A01 T01211122  RH  017%=      5-min Rain = 0
KAM1 112104Z 00011KT 12/M12 A3028 RMK A01 T01181124  RH  017%=      5-min Rain = 0
KAM1 112105Z 35013KT 12/M12 A3028 RMK A01 T01181123  RH  017%=      5-min Rain = 0
KAM1 112106Z 00013KT 12/M13 A3028 RMK A01 T01171125  RH  017%=      5-min Rain = 0
KAM1 112107Z 01017KT 12/M13 A3027 RMK A01 T01211128  RH  016%=      5-min Rain = 0
KAM1 112108Z 35015KT 12/M13 A3027 RMK A01 T01211134  RH  015%=      5-min Rain = 0
KAM1 112109Z 35016KT 12/M13 A3028 RMK A01 T01211132  RH  016%=      5-min Rain = 0
KAM1 112110Z 36018KT 12/M13 A3028 RMK A01 T01201132  RH  016%=      5-min Rain = 0
KAM1 112111Z 35015KT 12/M13 A3028 RMK A01 T01191134  RH  016%=      5-min Rain = 0
KAM1 112112Z 35015KT 12/M14 A3028 RMK A01 T01181136  RH  015%=      5-min Rain = 0
KAM1 112113Z 35013KT 12/M14 A3028 RMK A01 T01181137  RH  015%=      5-min Rain = 0
KAM1 112114Z 35012KT 12/M14 A3028 RMK A01 T01191138  RH  015%=      5-min Rain = 0
KAM1 112115Z 35014G19KT 12/M14 A3028 RMK A01 T01181139  RH  015%=      5-min Rain = 0
KAM1 112116Z 35017KT 12/M14 A3028 RMK A01 T01201137  RH  015%=      5-min Rain = 0
KAM1 112117Z 35014KT 12/M14 A3028 RMK A01 T01221138  RH  015%=      5-min Rain = 0
KAM1 112118Z 00014KT 12/M14 A3027 RMK A01 T01211139  RH  015%=      5-min Rain = 0
KAM1 112119Z 01014KT 12/M14 A3028 RMK A01 T01231139  RH  015%=      5-min Rain = 0
KAM1 112120Z 02015KT 12/M14 A3028 RMK A01 T01241141  RH  014%=      5-min Rain = 0
KAM1 112121Z 02013KT 12/M14 A3028 RMK A01 T01231142  RH  014%=      5-min Rain = 0
KAM1 112122Z 02014KT 12/M14 A3028 RMK A01 T01241141  RH  014%=      5-min Rain = 0
KAM1 112123Z 01013G19KT 13/M14 A3028 RMK A01 T01251140  RH  014%=      5-min Rain = 0
KAM1 112124Z 01011KT 13/M14 A3028 RMK A01 T01261139  RH  014%=      5-min Rain = 0
KAM1 112125Z 00015KT 12/M14 A3028 RMK A01 T01241139  RH  015%=      5-min Rain = 0
KAM1 112126Z 35017KT 12/M14 A3028 RMK A01 T01231141  RH  014%=      5-min Rain = 0
KAM1 112127Z 34016KT 12/M14 A3027 RMK A01 T01231140  RH  015%=      5-min Rain = 0
KAM1 112128Z 34014KT 12/M14 A3027 RMK A01 T01231140  RH  015%=      5-min Rain = 0
KAM1 112129Z 35015KT 12/M14 A3027 RMK A01 T01231141  RH  014%=      5-min Rain = 0
KAM1 112130Z 36015KT 12/M14 A3027 RMK A01 T01211143  RH  014%=      5-min Rain = 0
KAM1 112131Z 35016KT 12/M15 A3027 RMK A01 T01201145  RH  014%=      5-min Rain = 0
KAM1 112132Z 01018KT 12/M15 A3027 RMK A01 T01211146  RH  014%=      5-min Rain = 0
KAM1 112133Z 01015KT 12/M14 A3027 RMK A01 T01231143  RH  014%=      5-min Rain = 0
KAM1 112134Z 00016KT 12/M14 A3027 RMK A01 T01231143  RH  014%=      5-min Rain = 0
KAM1 112135Z 01012KT 12/M15 A3027 RMK A01 T01211146  RH  014%=      5-min Rain = 0
KAM1 112136Z 01014G19KT 12/M15 A3027 RMK A01 T01191146  RH  014%=      5-min Rain = 0
KAM1 112137Z 01013KT 12/M15 A3027 RMK A01 T01201145  RH  014%=      5-min Rain = 0
KAM1 112138Z 01013KT 12/M15 A3027 RMK A01 T01231147  RH  014%=      5-min Rain = 0
KAM1 112139Z 01016KT 13/M15 A3027 RMK A01 T01251147  RH  014%=      5-min Rain = 0
KAM1 112140Z 01013KT 12/M15 A3027 RMK A01 T01221148  RH  014%=      5-min Rain = 0
KAM1 112141Z 36012G17KT 12/M14 A3027 RMK A01 T01201142  RH  015%=      5-min Rain = 0
KAM1 112142Z 36016KT 12/M14 A3027 RMK A01 T01221137  RH  015%=      5-min Rain = 0
KAM1 112143Z 00014KT 12/M14 A3027 RMK A01 T01201137  RH  015%=      5-min Rain = 0
KAM1 112144Z 02008KT 12/M14 A3027 RMK A01 T01181137  RH  015%=      5-min Rain = 0
KAM1 112145Z 01010KT 12/M14 A3027 RMK A01 T01171136  RH  016%=      5-min Rain = 0
KAM1 112146Z 36015KT 12/M13 A3027 RMK A01 T01191134  RH  016%=      5-min Rain = 0
KAM1 112147Z 35017KT 12/M13 A3027 RMK A01 T01211133  RH  016%=      5-min Rain = 0
KAM1 112148Z 35016KT 12/M13 A3027 RMK A01 T01211134  RH  016%=      5-min Rain = 0
KAM1 112149Z 35013G18KT 12/M13 A3027 RMK A01 T01201133  RH  016%=      5-min Rain = 0
KAM1 112150Z 01012KT 12/M13 A3027 RMK A01 T01241129  RH  016%=      5-min Rain = 0
KAM1 112151Z 01013KT 13/M13 A3027 RMK A01 T01261130  RH  015%=      5-min Rain = 0
KAM1 112152Z 02011KT 12/M14 A3027 RMK A01 T01221135  RH  015%=      5-min Rain = 0
KAM1 112153Z 02010KT 12/M13 A3027 RMK A01 T01201133  RH  016%=      5-min Rain = 0
KAM1 112154Z 01012G17KT 12/M13 A3027 RMK A01 T01211130  RH  016%=      5-min Rain = 0
KAM1 112155Z 35014KT 12/M14 A3027 RMK A01 T01221136  RH  015%=      5-min Rain = 0
KAM1 112156Z 36013KT 12/M14 A3027 RMK A01 T01211139  RH  015%=      5-min Rain = 0
KAM1 112157Z 35016KT 12/M14 A3027 RMK A01 T01201137  RH  015%=      5-min Rain = 0
KAM1 112158Z 35015G20KT 12/M14 A3027 RMK A01 T01201136  RH  015%=      5-min Rain = 0
KAM1 112159Z 00017KT 12/M14 A3027 RMK A01 T01201136  RH  015%=      5-min Rain = 0
KAM1 112200Z 01018KT 12/M13 A3027 RMK A01 T01211134  RH  016%=      5-min Rain = 0
KAM1 112201Z 01018KT 12/M13 A3027 RMK A01 T01201132  RH  016%=      5-min Rain = 0
KAM1 112202Z 01013KT 12/M13 A3027 RMK A01 T01181130  RH  016%=      5-min Rain = 0
KAM1 112203Z 02013G18KT 12/M13 A3027 RMK A01 T01171130  RH  016%=      5-min Rain = 0
KAM1 112204Z 02015KT 12/M13 A3027 RMK A01 T01151132  RH  016%=      5-min Rain = 0
KAM1 112205Z 03019G24KT 12/M13 A3027 RMK A01 T01161132  RH  016%=      5-min Rain = 0
KAM1 112206Z 02018KT 12/M13 A3027 RMK A01 T01171132  RH  016%=      5-min Rain = 0
KAM1 112207Z 01016KT 12/M13 A3027 RMK A01 T01181133  RH  016%=      5-min Rain = 0
KAM1 112208Z 36013G18KT 12/M14 A3027 RMK A01 T01171135  RH  016%=      5-min Rain = 0
KAM1 112209Z 36013KT 12/M14 A3027 RMK A01 T01151137  RH  016%=      5-min Rain = 0
KAM1 112210Z 01017KT 12/M13 A3027 RMK A01 T01151134  RH  016%=      5-min Rain = 0
KAM1 112211Z 01016KT 11/M13 A3027 RMK A01 T01141131  RH  017%=      5-min Rain = 0
KAM1 112212Z 01015KT 11/M13 A3027 RMK A01 T01141129  RH  017%=      5-min Rain = 0
KAM1 112213Z 01012G17KT 11/M13 A3027 RMK A01 T01131130  RH  017%=      5-min Rain = 0
KAM1 112214Z 01014KT 11/M13 A3027 RMK A01 T01131128  RH  017%=      5-min Rain = 0
KAM1 112215Z 02014KT 11/M13 A3027 RMK A01 T01141128  RH  017%=      5-min Rain = 0
KAM1 112216Z 02014KT 11/M13 A3027 RMK A01 T01141128  RH  017%=      5-min Rain = 0
KAM1 112217Z 02012G17KT 11/M13 A3027 RMK A01 T01141127  RH  017%=      5-min Rain = 0
KAM1 112218Z 01012KT 12/M13 A3027 RMK A01 T01151126  RH  017%=      5-min Rain = 0
KAM1 112219Z 01014KT 11/M13 A3027 RMK A01 T01141126  RH  017%=      5-min Rain = 0
KAM1 112220Z 01015KT 11/M13 A3027 RMK A01 T01141125  RH  017%=      5-min Rain = 0
KAM1 112221Z 01013KT 12/M13 A3027 RMK A01 T01161125  RH  017%=      5-min Rain = 0
KAM1 112222Z 00014KT 12/M13 A3027 RMK A01 T01151127  RH  017%=      5-min Rain = 0
KAM1 112223Z 00013KT 11/M13 A3027 RMK A01 T01141127  RH  017%=      5-min Rain = 0
KAM1 112224Z 35010KT 11/M13 A3027 RMK A01 T01141127  RH  017%=      5-min Rain = 0
KAM1 112225Z 36015KT 12/M13 A3027 RMK A01 T01151125  RH  017%=      5-min Rain = 0
KAM1 112226Z 35013KT 12/M12 A3027 RMK A01 T01171124  RH  017%=      5-min Rain = 0
KAM1 112227Z 01013KT 12/M12 A3027 RMK A01 T01161124  RH  017%=      5-min Rain = 0
KAM1 112228Z 02011KT 12/M12 A3027 RMK A01 T01151124  RH  017%=      5-min Rain = 0
KAM1 112229Z 02010G15KT 12/M12 A3027 RMK A01 T01161122  RH  018%=      5-min Rain = 0
KAM1 112230Z 03015KT 12/M12 A3027 RMK A01 T01171123  RH  017%=      5-min Rain = 0
KAM1 112231Z 02018G26KT 12/M13 A3027 RMK A01 T01171126  RH  017%=      5-min Rain = 0
KAM1 112232Z 36016KT 12/M13 A3027 RMK A01 T01171126  RH  017%=      5-min Rain = 0
KAM1 112233Z 00012KT 12/M13 A3027 RMK A01 T01161127  RH  017%=      5-min Rain = 0
KAM1 112234Z 36012KT 12/M13 A3027 RMK A01 T01151126  RH  017%=      5-min Rain = 0
KAM1 112235Z 35012KT 12/M13 A3027 RMK A01 T01161126  RH  017%=      5-min Rain = 0
KAM1 112236Z 00009KT 11/M13 A3027 RMK A01 T01141126  RH  017%=      5-min Rain = 0
KAM1 112237Z 35011KT 12/M12 A3027 RMK A01 T01151123  RH  018%=      5-min Rain = 0
KAM1 112238Z 36011KT 12/M12 A3027 RMK A01 T01171123  RH  017%=      5-min Rain = 0
KAM1 112239Z 35012KT 12/M12 A3027 RMK A01 T01191122  RH  017%=      5-min Rain = 0
KAM1 112240Z 35015KT 12/M12 A3027 RMK A01 T01201124  RH  017%=      5-min Rain = 0
KAM1 112241Z 35016KT 12/M13 A3027 RMK A01 T01201126  RH  017%=      5-min Rain = 0
KAM1 112242Z 36016KT 12/M13 A3027 RMK A01 T01201127  RH  017%=      5-min Rain = 0
KAM1 112243Z 36014KT 12/M13 A3027 RMK A01 T01181129  RH  016%=      5-min Rain = 0
KAM1 112244Z 00015KT 12/M13 A3027 RMK A01 T01171130  RH  016%=      5-min Rain = 0
KAM1 112245Z 00015KT 12/M13 A3027 RMK A01 T01171129  RH  017%=      5-min Rain = 0
KAM1 112246Z 01013KT 12/M13 A3027 RMK A01 T01161130  RH  017%=      5-min Rain = 0
KAM1 112247Z 01013KT 12/M13 A3027 RMK A01 T01181129  RH  017%=      5-min Rain = 0
KAM1 112248Z 00013KT 12/M13 A3027 RMK A01 T01171129  RH  017%=      5-min Rain = 0
KAM1 112249Z 01012KT 12/M13 A3027 RMK A01 T01161128  RH  017%=      5-min Rain = 0
KAM1 112250Z 00013KT 12/M13 A3027 RMK A01 T01171125  RH  017%=      5-min Rain = 0
KAM1 112251Z 00011KT 12/M13 A3027 RMK A01 T01181125  RH  017%=      5-min Rain = 0
KAM1 112252Z 00012KT 12/M13 A3027 RMK A01 T01181125  RH  017%=      5-min Rain = 0
KAM1 112253Z 02011KT 12/M13 A3027 RMK A01 T01181125  RH  017%=      5-min Rain = 0
KAM1 112254Z 02009KT 12/M13 A3027 RMK A01 T01161127  RH  017%=      5-min Rain = 0
KAM1 112255Z 01008KT 12/M13 A3027 RMK A01 T01161126  RH  017%=      5-min Rain = 0
KAM1 112256Z 35011KT 12/M12 A3027 RMK A01 T01181123  RH  017%=      5-min Rain = 0
KAM1 112257Z 00008KT 12/M12 A3027 RMK A01 T01201122  RH  017%=      5-min Rain = 0
KAM1 112258Z 02007KT 12/M12 A3027 RMK A01 T01211123  RH  017%=      5-min Rain = 0
KAM1 112259Z 01007KT 12/M12 A3027 RMK A01 T01211124  RH  017%=      5-min Rain = 0
KAM1 112300Z 01011KT 12/M12 A3027 RMK A01 T01221123  RH  017%=      5-min Rain = 0
KAM1 112301Z 02010KT 12/M13 A3027 RMK A01 T01231126  RH  016%=      5-min Rain = 0
KAM1 112302Z 02013G18KT 12/M13 A3028 RMK A01 T01211130  RH  016%=      5-min Rain = 0
KAM1 112303Z 02013KT 12/M13 A3028 RMK A01 T01191133  RH  016%=      5-min Rain = 0
KAM1 112304Z 02013KT 12/M14 A3028 RMK A01 T01171135  RH  016%=      5-min Rain = 0
KAM1 112305Z 01012KT 12/M13 A3028 RMK A01 T01171134  RH  016%=      5-min Rain = 0
KAM1 112306Z 01011KT 12/M13 A3028 RMK A01 T01171133  RH  016%=      5-min Rain = 0
KAM1 112307Z 00013KT 12/M13 A3028 RMK A01 T01171134  RH  016%=      5-min Rain = 0
KAM1 112308Z 00009KT 12/M13 A3028 RMK A01 T01181134  RH  016%=      5-min Rain = 0
KAM1 112309Z 00013KT 12/M13 A3028 RMK A01 T01171134  RH  016%=      5-min Rain = 0
KAM1 112310Z 01012KT 12/M14 A3028 RMK A01 T01171135  RH  016%=      5-min Rain = 0
KAM1 112311Z 36012KT 12/M14 A3028 RMK A01 T01161136  RH  016%=      5-min Rain = 0
KAM1 112312Z 00011KT 12/M14 A3027 RMK A01 T01161136  RH  016%=      5-min Rain = 0
KAM1 112313Z 00008KT 12/M14 A3028 RMK A01 T01151135  RH  016%=      5-min Rain = 0
KAM1 112314Z 01010KT 12/M13 A3028 RMK A01 T01161133  RH  016%=      5-min Rain = 0
KAM1 112315Z 01010KT 12/M14 A3028 RMK A01 T01161136  RH  016%=      5-min Rain = 0
KAM1 112316Z 01010KT 11/M14 A3028 RMK A01 T01131139  RH  016%=      5-min Rain = 0
KAM1 112317Z 01011KT 11/M14 A3028 RMK A01 T01111139  RH  016%=      5-min Rain = 0
KAM1 112318Z 03009KT 11/M14 A3028 RMK A01 T01111137  RH  016%=      5-min Rain = 0
KAM1 112319Z 02014KT 11/M14 A3028 RMK A01 T01101136  RH  016%=      5-min Rain = 0
KAM1 112320Z 01014KT 11/M14 A3028 RMK A01 T01091136  RH  016%=      5-min Rain = 0
KAM1 112321Z 35014KT 11/M14 A3028 RMK A01 T01081136  RH  017%=      5-min Rain = 0
KAM1 112322Z 00013KT 11/M14 A3028 RMK A01 T01081136  RH  017%=      5-min Rain = 0
KAM1 112323Z 02011KT 11/M14 A3028 RMK A01 T01081135  RH  017%=      5-min Rain = 0
KAM1 112324Z 03010KT 11/M14 A3028 RMK A01 T01091135  RH  017%=      5-min Rain = 0
KAM1 112325Z 03010KT 11/M14 A3028 RMK A01 T01091135  RH  017%=      5-min Rain = 0
KAM1 112326Z 03009KT 11/M13 A3028 RMK A01 T01111134  RH  016%=      5-min Rain = 0
KAM1 112327Z 02012KT 11/M13 A3028 RMK A01 T01131133  RH  016%=      5-min Rain = 0
KAM1 112328Z 03013KT 12/M13 A3028 RMK A01 T01151133  RH  016%=      5-min Rain = 0
KAM1 112329Z 02014KT 12/M13 A3028 RMK A01 T01151134  RH  016%=      5-min Rain = 0
KAM1 112330Z 02011KT 12/M13 A3028 RMK A01 T01151134  RH  016%=      5-min Rain = 0
KAM1 112331Z 01011KT 12/M13 A3028 RMK A01 T01161133  RH  016%=      5-min Rain = 0
KAM1 112332Z 03011KT 12/M13 A3028 RMK A01 T01151134  RH  016%=      5-min Rain = 0
KAM1 112333Z 02012KT 11/M14 A3028 RMK A01 T01141135  RH  016%=      5-min Rain = 0
KAM1 112334Z 03013KT 11/M14 A3028 RMK A01 T01121136  RH  016%=      5-min Rain = 0
KAM1 112335Z 03014KT 11/M14 A3029 RMK A01 T01101136  RH  016%=      5-min Rain = 0
KAM1 112336Z 02012KT 11/M14 A3029 RMK A01 T01101135  RH  016%=      5-min Rain = 0
KAM1 112337Z 03010KT 11/M14 A3028 RMK A01 T01091135  RH  017%=      5-min Rain = 0
KAM1 112338Z 02010KT 11/M14 A3028 RMK A01 T01091135  RH  017%=      5-min Rain = 0
KAM1 112339Z 01011KT 11/M14 A3028 RMK A01 T01091135  RH  017%=      5-min Rain = 0
KAM1 112340Z 01014KT 11/M13 A3028 RMK A01 T01101134  RH  017%=      5-min Rain = 0
KAM1 112341Z 02014KT 11/M13 A3028 RMK A01 T01111133  RH  017%=      5-min Rain = 0
KAM1 112342Z 02015KT 11/M13 A3029 RMK A01 T01121134  RH  016%=      5-min Rain = 0
KAM1 112343Z 02014KT 11/M13 A3029 RMK A01 T01111134  RH  016%=      5-min Rain = 0
KAM1 112344Z 03012KT 11/M14 A3029 RMK A01 T01111136  RH  016%=      5-min Rain = 0
KAM1 112345Z 03013KT 11/M14 A3029 RMK A01 T01101136  RH  016%=      5-min Rain = 0
KAM1 112346Z 02010KT 11/M14 A3029 RMK A01 T01091136  RH  017%=      5-min Rain = 0
KAM1 112347Z 02010KT 11/M14 A3029 RMK A01 T01071137  RH  017%=      5-min Rain = 0
KAM1 112348Z 02011G17KT 11/M14 A3029 RMK A01 T01071137  RH  017%=      5-min Rain = 0
KAM1 112349Z 01013KT 11/M14 A3029 RMK A01 T01071137  RH  017%=      5-min Rain = 0
KAM1 112350Z 02011KT 11/M14 A3029 RMK A01 T01061138  RH  017%=      5-min Rain = 0
KAM1 112351Z 02011KT 11/M14 A3029 RMK A01 T01051139  RH  017%=      5-min Rain = 0
KAM1 112352Z 03011KT 11/M14 A3029 RMK A01 T01051139  RH  017%=      5-min Rain = 0
KAM1 112353Z 03012KT 11/M14 A3029 RMK A01 T01051139  RH  017%=      5-min Rain = 0
KAM1 112354Z 03014KT 11/M14 A3029 RMK A01 T01051142  RH  016%=      5-min Rain = 0
KAM1 112355Z 02014KT 11/M14 A3029 RMK A01 T01051142  RH  016%=      5-min Rain = 0
KAM1 112356Z 01010KT 11/M14 A3029 RMK A01 T01051142  RH  016%=      5-min Rain = 0
KAM1 112357Z 02010KT 11/M14 A3029 RMK A01 T01051141  RH  016%=      5-min Rain = 0
KAM1 112358Z 02013KT 11/M14 A3029 RMK A01 T01051141  RH  016%=      5-min Rain = 0
KAM1 112359Z 02012KT 10/M14 A3029 RMK A01 T01041143  RH  016%=      5-min Rain = 0
KAM1 120000Z 02012KT 10/M15 A3029 RMK A01 T01041145  RH  016%=      5-min Rain = 0
KAM1 120001Z 02010KT 10/M15 A3029 RMK A01 T01031145  RH  016%=      5-min Rain = 0
KAM1 120002Z 03010KT 10/M15 A3029 RMK A01 T01031146  RH  016%=      5-min Rain = 0
KAM1 120003Z 03009KT 10/M15 A3029 RMK A01 T01021145  RH  016%=      5-min Rain = 0
KAM1 120004Z 02011KT 10/M15 A3029 RMK A01 T01021145  RH  016%=      5-min Rain = 0
KAM1 120005Z 02011KT 10/M15 A3029 RMK A01 T01021146  RH  016%=      5-min Rain = 0
KAM1 120006Z 02011KT 10/M15 A3029 RMK A01 T01021145  RH  016%=      5-min Rain = 0
KAM1 120007Z 01010KT 10/M14 A303 RMK A01 T01021144  RH  016%=      5-min Rain = 0
KAM1 120008Z 01011KT 10/M14 A303 RMK A01 T01021143  RH  016%=      5-min Rain = 0
KAM1 120009Z 01010KT 10/M14 A303 RMK A01 T01031143  RH  016%=      5-min Rain = 0
KAM1 120010Z 01010KT 10/M14 A303 RMK A01 T01031143  RH  016%=      5-min Rain = 0
KAM1 120011Z 01008KT 10/M14 A303 RMK A01 T01031144  RH  016%=      5-min Rain = 0
KAM1 120012Z 02011KT 10/M15 A303 RMK A01 T01031146  RH  016%=      5-min Rain = 0
KAM1 120013Z 02011KT 10/M15 A303 RMK A01 T01031148  RH  016%=      5-min Rain = 0
KAM1 120014Z 02012KT 10/M15 A303 RMK A01 T01031151  RH  015%=      5-min Rain = 0
KAM1 120015Z 01011KT 10/M15 A303 RMK A01 T01031154  RH  015%=      5-min Rain = 0
KAM1 120016Z 02009KT 10/M16 A303 RMK A01 T01021156  RH  015%=      5-min Rain = 0
KAM1 120017Z 01011KT 10/M16 A303 RMK A01 T01021157  RH  014%=      5-min Rain = 0
KAM1 120018Z 02010KT 10/M16 A303 RMK A01 T01021159  RH  014%=      5-min Rain = 0
KAM1 120019Z 02011KT 10/M16 A303 RMK A01 T01011160  RH  014%=      5-min Rain = 0
KAM1 120020Z 02011KT 10/M16 A303 RMK A01 T01001161  RH  014%=      5-min Rain = 0
KAM1 120021Z 02012KT 10/M16 A303 RMK A01 T01001162  RH  014%=      5-min Rain = 0
KAM1 120022Z 02012KT 10/M16 A303 RMK A01 T00981163  RH  014%=      5-min Rain = 0
KAM1 120023Z 02010KT 10/M16 A303 RMK A01 T00981164  RH  014%=      5-min Rain = 0
KAM1 120024Z 03009KT 10/M16 A303 RMK A01 T00981162  RH  014%=      5-min Rain = 0
KAM1 120025Z 03010KT 10/M16 A303 RMK A01 T00971162  RH  014%=      5-min Rain = 0
KAM1 120026Z 02009KT 10/M16 A303 RMK A01 T00961162  RH  014%=      5-min Rain = 0
KAM1 120027Z 02009KT 10/M16 A303 RMK A01 T00951162  RH  015%=      5-min Rain = 0
KAM1 120028Z 02010KT 10/M16 A303 RMK A01 T00951162  RH  015%=      5-min Rain = 0
KAM1 120029Z 02010KT 10/M16 A303 RMK A01 T00951161  RH  015%=      5-min Rain = 0
KAM1 120030Z 01009KT 09/M16 A303 RMK A01 T00941162  RH  015%=      5-min Rain = 0
KAM1 120031Z 02008KT 09/M16 A303 RMK A01 T00941162  RH  015%=      5-min Rain = 0
KAM1 120032Z 02009KT 09/M16 A303 RMK A01 T00931162  RH  015%=      5-min Rain = 0
KAM1 120033Z 02010KT 09/M16 A303 RMK A01 T00931163  RH  015%=      5-min Rain = 0
KAM1 120034Z 02008KT 09/M16 A303 RMK A01 T00931163  RH  015%=      5-min Rain = 0
KAM1 120035Z 02008KT 09/M16 A303 RMK A01 T00931163  RH  015%=      5-min Rain = 0
KAM1 120036Z 02008KT 09/M16 A303 RMK A01 T00911163  RH  015%=      5-min Rain = 0
KAM1 120037Z 02009KT 09/M16 A303 RMK A01 T00901164  RH  015%=      5-min Rain = 0
KAM1 120038Z 02007KT 09/M16 A303 RMK A01 T00901163  RH  015%=      5-min Rain = 0
KAM1 120039Z 03008KT 09/M16 A303 RMK A01 T00891164  RH  015%=      5-min Rain = 0
KAM1 120040Z 03007KT 09/M16 A303 RMK A01 T00891164  RH  015%=      5-min Rain = 0
KAM1 120041Z 03007KT 09/M17 A3031 RMK A01 T00881165  RH  015%=      5-min Rain = 0
KAM1 120042Z 03008KT 09/M17 A3031 RMK A01 T00861166  RH  015%=      5-min Rain = 0
KAM1 120043Z 03007KT 09/M17 A3031 RMK A01 T00861166  RH  015%=      5-min Rain = 0
KAM1 120044Z 03008KT 08/M17 A3031 RMK A01 T00841167  RH  015%=      5-min Rain = 0
KAM1 120045Z 03007KT 08/M17 A3031 RMK A01 T00841168  RH  015%=      5-min Rain = 0
KAM1 120046Z 03007KT 08/M17 A3031 RMK A01 T00821169  RH  015%=      5-min Rain = 0
KAM1 120047Z 02007KT 08/M17 A3031 RMK A01 T00811170  RH  015%=      5-min Rain = 0
KAM1 120048Z 02008KT 08/M17 A3031 RMK A01 T00801171  RH  015%=      5-min Rain = 0
KAM1 120049Z 02007KT 08/M17 A3031 RMK A01 T00791172  RH  015%=      5-min Rain = 0
KAM1 120050Z 02007KT 08/M17 A3031 RMK A01 T00771173  RH  015%=      5-min Rain = 0
KAM1 120051Z 02007KT 08/M17 A3031 RMK A01 T00751174  RH  015%=      5-min Rain = 0
KAM1 120052Z 02007KT 07/M18 A3031 RMK A01 T00731175  RH  015%=      5-min Rain = 0
KAM1 120053Z 02007KT 07/M18 A3031 RMK A01 T00711176  RH  015%=      5-min Rain = 0
KAM1 120054Z 02008KT 07/M18 A3031 RMK A01 T00701176  RH  015%=      5-min Rain = 0
KAM1 120055Z 02008KT 07/M18 A3031 RMK A01 T00681177  RH  016%=      5-min Rain = 0
KAM1 120056Z 02008KT 07/M18 A3031 RMK A01 T00671177  RH  016%=      5-min Rain = 0
KAM1 120057Z 03008KT 07/M18 A3032 RMK A01 T00661177  RH  016%=      5-min Rain = 0
KAM1 120058Z 02007KT 06/M18 A3032 RMK A01 T00641177  RH  016%=      5-min Rain = 0
KAM1 120059Z 02007KT 06/M18 A3032 RMK A01 T00631177  RH  016%=      5-min Rain = 0
KAM1 120100Z 02007KT 06/M18 A3032 RMK A01 T00621177  RH  016%=      5-min Rain = 0
KAM1 120101Z 02007KT 06/M18 A3032 RMK A01 T00601178  RH  016%=      5-min Rain = 0
KAM1 120102Z 02007KT 06/M18 A3032 RMK A01 T00591178  RH  016%=      5-min Rain = 0
KAM1 120103Z 02007KT 06/M18 A3032 RMK A01 T00581178  RH  016%=      5-min Rain = 0
KAM1 120104Z 02007KT 06/M18 A3032 RMK A01 T00561179  RH  017%=      5-min Rain = 0
KAM1 120105Z 02007KT 06/M18 A3032 RMK A01 T00561178  RH  017%=      5-min Rain = 0
KAM1 120106Z 02007KT 06/M18 A3032 RMK A01 T00551177  RH  017%=      5-min Rain = 0
KAM1 120107Z 02007KT 05/M18 A3032 RMK A01 T00541178  RH  017%=      5-min Rain = 0
KAM1 120108Z 02007KT 05/M18 A3032 RMK A01 T00531178  RH  017%=      5-min Rain = 0
KAM1 120109Z 01007KT 05/M18 A3032 RMK A01 T00521179  RH  017%=      5-min Rain = 0
KAM1 120110Z 02007KT 05/M18 A3032 RMK A01 T00511179  RH  017%=      5-min Rain = 0
KAM1 120111Z 02007KT 05/M18 A3032 RMK A01 T00501179  RH  017%=      5-min Rain = 0
KAM1 120112Z 02007KT 05/M18 A3032 RMK A01 T00491179  RH  017%=      5-min Rain = 0
KAM1 120113Z 02007KT 05/M18 A3032 RMK A01 T00481178  RH  018%=      5-min Rain = 0
KAM1 120114Z 02007KT 05/M18 A3032 RMK A01 T00471178  RH  018%=      5-min Rain = 0
KAM1 120115Z 01007KT 05/M18 A3032 RMK A01 T00461178  RH  018%=      5-min Rain = 0
KAM1 120116Z 02006KT 04/M18 A3032 RMK A01 T00441179  RH  018%=      5-min Rain = 0
KAM1 120117Z 01006KT 04/M18 A3032 RMK A01 T00431179  RH  018%=      5-min Rain = 0
KAM1 120118Z 02007KT 04/M18 A3032 RMK A01 T00421180  RH  018%=      5-min Rain = 0
KAM1 120119Z 02007KT 04/M18 A3032 RMK A01 T00411179  RH  018%=      5-min Rain = 0
KAM1 120120Z 02007KT 04/M18 A3032 RMK A01 T00401179  RH  018%=      5-min Rain = 0
KAM1 120121Z 02007KT 04/M18 A3032 RMK A01 T00401178  RH  019%=      5-min Rain = 0
KAM1 120122Z 02007KT 04/M18 A3032 RMK A01 T00391179  RH  019%=      5-min Rain = 0
KAM1 120123Z 02007KT 04/M18 A3032 RMK A01 T00391179  RH  019%=      5-min Rain = 0
KAM1 120124Z 02007KT 04/M18 A3032 RMK A01 T00371179  RH  019%=      5-min Rain = 0
KAM1 120125Z 02006KT 04/M18 A3032 RMK A01 T00361179  RH  019%=      5-min Rain = 0
KAM1 120126Z 02007KT 03/M18 A3032 RMK A01 T00341181  RH  019%=      5-min Rain = 0
KAM1 120127Z 02007KT 03/M18 A3032 RMK A01 T00331181  RH  019%=      5-min Rain = 0
KAM1 120128Z 02007KT 03/M18 A3032 RMK A01 T00321181  RH  019%=      5-min Rain = 0
KAM1 120129Z 03007KT 03/M18 A3032 RMK A01 T00311180  RH  019%=      5-min Rain = 0
KAM1 120130Z 02008KT 03/M18 A3032 RMK A01 T00301181  RH  020%=      5-min Rain = 0
KAM1 120131Z 02008KT 03/M18 A3032 RMK A01 T00291181  RH  020%=      5-min Rain = 0
KAM1 120132Z 02008KT 03/M18 A3032 RMK A01 T00271182  RH  020%=      5-min Rain = 0
KAM1 120133Z 02008KT 03/M18 A3032 RMK A01 T00261181  RH  020%=      5-min Rain = 0
KAM1 120134Z 02008KT 02/M18 A3032 RMK A01 T00241182  RH  020%=      5-min Rain = 0
KAM1 120135Z 02008KT 02/M18 A3032 RMK A01 T00231181  RH  020%=      5-min Rain = 0
KAM1 120136Z 02008KT 02/M18 A3032 RMK A01 T00221181  RH  021%=      5-min Rain = 0
KAM1 120137Z 02008KT 02/M18 A3032 RMK A01 T00211180  RH  021%=      5-min Rain = 0
KAM1 120138Z 02008KT 02/M18 A3032 RMK A01 T00201179  RH  021%=      5-min Rain = 0
KAM1 120139Z 03008KT 02/M18 A3032 RMK A01 T00201177  RH  022%=      5-min Rain = 0
KAM1 120140Z 03008KT 02/M18 A3032 RMK A01 T00201177  RH  022%=      5-min Rain = 0
KAM1 120141Z 03008KT 02/M18 A3032 RMK A01 T00201176  RH  022%=      5-min Rain = 0
KAM1 120142Z 03008KT 02/M18 A3032 RMK A01 T00191175  RH  022%=      5-min Rain = 0
KAM1 120143Z 03008KT 02/M17 A3032 RMK A01 T00191174  RH  022%=      5-min Rain = 0
KAM1 120144Z 03008KT 02/M17 A3032 RMK A01 T00181174  RH  023%=      5-min Rain = 0
KAM1 120145Z 03008KT 02/M17 A3032 RMK A01 T00181173  RH  023%=      5-min Rain = 0
KAM1 120146Z 03008KT 02/M17 A3032 RMK A01 T00171173  RH  023%=      5-min Rain = 0
KAM1 120147Z 03008KT 02/M17 A3032 RMK A01 T00171172  RH  023%=      5-min Rain = 0
KAM1 120148Z 03008KT 02/M17 A3032 RMK A01 T00171172  RH  023%=      5-min Rain = 0
KAM1 120149Z 03007KT 02/M17 A3032 RMK A01 T00161172  RH  023%=      5-min Rain = 0
KAM1 120150Z 03007KT 02/M17 A3033 RMK A01 T00161171  RH  023%=      5-min Rain = 0
KAM1 120151Z 03007KT 02/M17 A3033 RMK A01 T00161171  RH  024%=      5-min Rain = 0
KAM1 120152Z 03007KT 02/M17 A3033 RMK A01 T00151171  RH  024%=      5-min Rain = 0
KAM1 120153Z 03006KT 02/M17 A3033 RMK A01 T00151170  RH  024%=      5-min Rain = 0
KAM1 120154Z 03006KT 02/M17 A3033 RMK A01 T00151169  RH  024%=      5-min Rain = 0
KAM1 120155Z 03006KT 02/M17 A3033 RMK A01 T00151168  RH  024%=      5-min Rain = 0
KAM1 120156Z 03007KT 02/M17 A3033 RMK A01 T00161167  RH  024%=      5-min Rain = 0
KAM1 120157Z 03007KT 02/M17 A3033 RMK A01 T00171165  RH  024%=      5-min Rain = 0
KAM1 120158Z 03007KT 02/M17 A3033 RMK A01 T00181165  RH  024%=      5-min Rain = 0
KAM1 120159Z 03007KT 02/M17 A3033 RMK A01 T00181165  RH  024%=      5-min Rain = 0
KAM1 120200Z 03007KT 02/M16 A3033 RMK A01 T00181164  RH  024%=      5-min Rain = 0
KAM1 120201Z 03007KT 02/M16 A3033 RMK A01 T00181164  RH  025%=      5-min Rain = 0
KAM1 120202Z 03007KT 02/M16 A3033 RMK A01 T00171164  RH  025%=      5-min Rain = 0
KAM1 120203Z 03007KT 02/M16 A3033 RMK A01 T00171164  RH  025%=      5-min Rain = 0
KAM1 120204Z 03007KT 02/M16 A3033 RMK A01 T00171164  RH  025%=      5-min Rain = 0
KAM1 120205Z 03006KT 02/M16 A3033 RMK A01 T00161164  RH  025%=      5-min Rain = 0
KAM1 120206Z 04007KT 02/M16 A3033 RMK A01 T00151163  RH  025%=      5-min Rain = 0
KAM1 120207Z 03007KT 02/M16 A3033 RMK A01 T00151163  RH  025%=      5-min Rain = 0
KAM1 120208Z 03007KT 01/M16 A3033 RMK A01 T00141162  RH  026%=      5-min Rain = 0
KAM1 120209Z 03007KT 01/M16 A3033 RMK A01 T00141162  RH  026%=      5-min Rain = 0
KAM1 120210Z 03007KT 01/M16 A3033 RMK A01 T00141161  RH  026%=      5-min Rain = 0
KAM1 120211Z 03007KT 01/M16 A3033 RMK A01 T00141160  RH  026%=      5-min Rain = 0
KAM1 120212Z 03006KT 01/M16 A3033 RMK A01 T00141160  RH  026%=      5-min Rain = 0
KAM1 120213Z 03006KT 01/M16 A3033 RMK A01 T00141160  RH  026%=      5-min Rain = 0
KAM1 120214Z 03006KT 01/M16 A3033 RMK A01 T00141160  RH  026%=      5-min Rain = 0
KAM1 120215Z 03005KT 01/M16 A3033 RMK A01 T00141160  RH  026%=      5-min Rain = 0
KAM1 120216Z 03006KT 01/M16 A3033 RMK A01 T00141159  RH  026%=      5-min Rain = 0
KAM1 120217Z 03006KT 01/M16 A3033 RMK A01 T00141159  RH  026%=      5-min Rain = 0
KAM1 120218Z 03006KT 02/M16 A3033 RMK A01 T00151158  RH  026%=      5-min Rain = 0
KAM1 120219Z 04006KT 02/M16 A3033 RMK A01 T00161157  RH  026%=      5-min Rain = 0
KAM1 120220Z 03006KT 02/M16 A3034 RMK A01 T00161157  RH  026%=      5-min Rain = 0
KAM1 120221Z 03006KT 02/M16 A3034 RMK A01 T00161156  RH  026%=      5-min Rain = 0
KAM1 120222Z 03006KT 02/M16 A3034 RMK A01 T00161156  RH  027%=      5-min Rain = 0
KAM1 120223Z 03005KT 02/M16 A3034 RMK A01 T00171155  RH  027%=      5-min Rain = 0
KAM1 120224Z 03005KT 02/M16 A3034 RMK A01 T00171155  RH  027%=      5-min Rain = 0
KAM1 120225Z 03005KT 02/M15 A3034 RMK A01 T00181154  RH  027%=      5-min Rain = 0
KAM1 120226Z 03005KT 02/M15 A3034 RMK A01 T00191153  RH  027%=      5-min Rain = 0
KAM1 120227Z 03006KT 02/M15 A3034 RMK A01 T00201153  RH  027%=      5-min Rain = 0
KAM1 120228Z 03006KT 02/M15 A3034 RMK A01 T00211152  RH  027%=      5-min Rain = 0
KAM1 120229Z 03006KT 02/M15 A3034 RMK A01 T00211152  RH  026%=      5-min Rain = 0
KAM1 120230Z 03006KT 02/M15 A3034 RMK A01 T00211152  RH  026%=      5-min Rain = 0
KAM1 120231Z 03005KT 02/M15 A3034 RMK A01 T00211152  RH  026%=      5-min Rain = 0
KAM1 120232Z 03005KT 02/M15 A3034 RMK A01 T00201152  RH  027%=      5-min Rain = 0
KAM1 120233Z 04005KT 02/M15 A3034 RMK A01 T00191152  RH  027%=      5-min Rain = 0
KAM1 120234Z 04005KT 02/M15 A3034 RMK A01 T00181152  RH  027%=      5-min Rain = 0
KAM1 120235Z 04005KT 02/M15 A3034 RMK A01 T00171152  RH  027%=      5-min Rain = 0
KAM1 120236Z 04005KT 02/M15 A3034 RMK A01 T00161152  RH  027%=      5-min Rain = 0
KAM1 120237Z 04005KT 02/M15 A3035 RMK A01 T00161151  RH  028%=      5-min Rain = 0
KAM1 120238Z 04005KT 02/M15 A3035 RMK A01 T00151150  RH  028%=      5-min Rain = 0
KAM1 120239Z 04006KT 02/M15 A3035 RMK A01 T00151150  RH  028%=      5-min Rain = 0
KAM1 120240Z 04006KT 01/M15 A3035 RMK A01 T00141150  RH  028%=      5-min Rain = 0
KAM1 120241Z 04006KT 01/M15 A3035 RMK A01 T00141149  RH  028%=      5-min Rain = 0
KAM1 120242Z 04006KT 01/M15 A3035 RMK A01 T00141149  RH  029%=      5-min Rain = 0
KAM1 120243Z 04006KT 01/M15 A3035 RMK A01 T00131149  RH  029%=      5-min Rain = 0
KAM1 120244Z 04006KT 01/M15 A3035 RMK A01 T00121149  RH  029%=      5-min Rain = 0
KAM1 120245Z 04006KT 01/M15 A3035 RMK A01 T00111150  RH  029%=      5-min Rain = 0
KAM1 120246Z 04005KT 01/M15 A3035 RMK A01 T00111149  RH  029%=      5-min Rain = 0
KAM1 120247Z 04005KT 01/M15 A3035 RMK A01 T00101149  RH  029%=      5-min Rain = 0
KAM1 120248Z 04005KT 01/M15 A3035 RMK A01 T00101149  RH  030%=      5-min Rain = 0
KAM1 120249Z 05005KT 01/M15 A3035 RMK A01 T00101148  RH  030%=      5-min Rain = 0
KAM1 120250Z 05004KT 01/M15 A3035 RMK A01 T00091148  RH  030%=      5-min Rain = 0
KAM1 120251Z 05004KT 01/M15 A3035 RMK A01 T00091148  RH  030%=      5-min Rain = 0
KAM1 120252Z 05004KT 01/M15 A3035 RMK A01 T00081148  RH  030%=      5-min Rain = 0
KAM1 120253Z 05004KT 01/M15 A3035 RMK A01 T00091147  RH  030%=      5-min Rain = 0
KAM1 120254Z 05004KT 01/M15 A3035 RMK A01 T00091147  RH  030%=      5-min Rain = 0
KAM1 120255Z 04004KT 01/M15 A3035 RMK A01 T00101145  RH  030%=      5-min Rain = 0
KAM1 120256Z 04004KT 01/M15 A3035 RMK A01 T00111145  RH  030%=      5-min Rain = 0
KAM1 120257Z 04004KT 01/M15 A3035 RMK A01 T00121145  RH  030%=      5-min Rain = 0
KAM1 120258Z 04004KT 01/M15 A3035 RMK A01 T00121145  RH  030%=      5-min Rain = 0
KAM1 120259Z 04004KT 01/M15 A3035 RMK A01 T00121145  RH  030%=      5-min Rain = 0
KAM1 120300Z 04004KT 01/M15 A3036 RMK A01 T00111146  RH  030%=      5-min Rain = 0
KAM1 120301Z 04004KT 01/M15 A3036 RMK A01 T00111147  RH  030%=      5-min Rain = 0
KAM1 120302Z 04004KT 01/M15 A3036 RMK A01 T00091148  RH  030%=      5-min Rain = 0
KAM1 120303Z 04004KT 01/M15 A3036 RMK A01 T00071149  RH  030%=      5-min Rain = 0
KAM1 120304Z 04004KT 00/M15 A3036 RMK A01 T00041150  RH  030%=      5-min Rain = 0
KAM1 120305Z 04004KT 00/M15 A3036 RMK A01 T00021150  RH  031%=      5-min Rain = 0
KAM1 120306Z 04004KT 00/M15 A3036 RMK A01 T00011150  RH  031%=      5-min Rain = 0
KAM1 120307Z 04004KT 00/15 A3036 RMK A01 T00000-149  RH  032%=      5-min Rain = 0
KAM1 120308Z 04004KT 00/15 A3036 RMK A01 T00-00-148  RH  032%=      5-min Rain = 0
KAM1 120309Z 04004KT 00/15 A3036 RMK A01 T00000-146  RH  032%=      5-min Rain = 0
KAM1 120310Z 04005KT 00/M14 A3036 RMK A01 T00021143  RH  033%=      5-min Rain = 0
KAM1 120311Z 04005KT 01/M14 A3036 RMK A01 T00051141  RH  033%=      5-min Rain = 0
KAM1 120312Z 04005KT 01/M14 A3036 RMK A01 T00071140  RH  032%=      5-min Rain = 0
KAM1 120313Z 05005KT 01/M14 A3036 RMK A01 T00091139  RH  032%=      5-min Rain = 0
KAM1 120314Z 05005KT 01/M14 A3036 RMK A01 T00101140  RH  032%=      5-min Rain = 0
KAM1 120315Z 05005KT 01/M14 A3036 RMK A01 T00101140  RH  031%=      5-min Rain = 0
KAM1 120316Z 05005KT 01/M14 A3036 RMK A01 T00091141  RH  031%=      5-min Rain = 0
KAM1 120317Z 05005KT 01/M14 A3036 RMK A01 T00081142  RH  032%=      5-min Rain = 0
KAM1 120318Z 05005KT 01/M14 A3036 RMK A01 T00081141  RH  032%=      5-min Rain = 0
KAM1 120319Z 05005KT 01/M14 A3036 RMK A01 T00081140  RH  032%=      5-min Rain = 0
KAM1 120320Z 05006KT 01/M14 A3036 RMK A01 T00091139  RH  032%=      5-min Rain = 0
KAM1 120321Z 05006KT 01/M14 A3036 RMK A01 T00091139  RH  032%=      5-min Rain = 0
KAM1 120322Z 05006KT 01/M14 A3036 RMK A01 T00091139  RH  032%=      5-min Rain = 0
KAM1 120323Z 05006KT 01/M14 A3036 RMK A01 T00091139  RH  032%=      5-min Rain = 0
KAM1 120324Z 05006KT 01/M14 A3036 RMK A01 T00081140  RH  032%=      5-min Rain = 0
KAM1 120325Z 05007KT 01/M14 A3036 RMK A01 T00091139  RH  032%=      5-min Rain = 0
KAM1 120326Z 05007KT 01/M14 A3036 RMK A01 T00091139  RH  032%=      5-min Rain = 0
KAM1 120327Z 05007KT 01/M14 A3036 RMK A01 T00091138  RH  032%=      5-min Rain = 0
KAM1 120328Z 06008KT 01/M14 A3035 RMK A01 T00101136  RH  033%=      5-min Rain = 0
KAM1 120329Z 06008KT 01/M14 A3035 RMK A01 T00111135  RH  033%=      5-min Rain = 0
KAM1 120330Z 06008KT 01/M13 A3035 RMK A01 T00121132  RH  033%=      5-min Rain = 0
KAM1 120331Z 06009KT 01/M13 A3035 RMK A01 T00131130  RH  034%=      5-min Rain = 0
KAM1 120332Z 06009KT 02/M13 A3035 RMK A01 T00151127  RH  034%=      5-min Rain = 0
KAM1 120333Z 06009KT 02/M12 A3035 RMK A01 T00181124  RH  034%=      5-min Rain = 0
KAM1 120334Z 06009KT 02/M12 A3035 RMK A01 T00201120  RH  034%=      5-min Rain = 0
KAM1 120335Z 06009KT 02/M12 A3035 RMK A01 T00241117  RH  035%=      5-min Rain = 0
KAM1 120336Z 06009KT 03/M12 A3035 RMK A01 T00271116  RH  034%=      5-min Rain = 0
KAM1 120337Z 06009KT 03/M12 A3035 RMK A01 T00291115  RH  034%=      5-min Rain = 0
KAM1 120338Z 07009KT 03/M12 A3035 RMK A01 T00321115  RH  033%=      5-min Rain = 0
KAM1 120339Z 06009KT 03/M12 A3035 RMK A01 T00331116  RH  033%=      5-min Rain = 0
KAM1 120340Z 06008KT 03/M12 A3035 RMK A01 T00341115  RH  033%=      5-min Rain = 0
KAM1 120341Z 06008KT 03/M12 A3035 RMK A01 T00341116  RH  032%=      5-min Rain = 0
KAM1 120342Z 06008KT 04/M12 A3035 RMK A01 T00351116  RH  032%=      5-min Rain = 0
KAM1 120343Z 06007KT 04/M12 A3035 RMK A01 T00351116  RH  032%=      5-min Rain = 0
KAM1 120344Z 06006KT 04/M12 A3035 RMK A01 T00351115  RH  032%=      5-min Rain = 0
KAM1 120345Z 06007KT 04/M11 A3035 RMK A01 T00361114  RH  032%=      5-min Rain = 0
KAM1 120346Z 06007KT 04/M11 A3035 RMK A01 T00361114  RH  032%=      5-min Rain = 0
KAM1 120347Z 06006KT 04/M12 A3035 RMK A01 T00361115  RH  032%=      5-min Rain = 0
KAM1 120348Z 06006KT 04/M11 A3035 RMK A01 T00361114  RH  032%=      5-min Rain = 0
KAM1 120349Z 06006KT 04/M11 A3036 RMK A01 T00371113  RH  033%=      5-min Rain = 0
KAM1 120350Z 06006KT 04/M11 A3036 RMK A01 T00371113  RH  033%=      5-min Rain = 0
KAM1 120351Z 06006KT 04/M11 A3036 RMK A01 T00371113  RH  033%=      5-min Rain = 0
KAM1 120352Z 06006KT 04/M11 A3036 RMK A01 T00371112  RH  033%=      5-min Rain = 0
KAM1 120353Z 06006KT 04/M11 A3036 RMK A01 T00371112  RH  033%=      5-min Rain = 0
KAM1 120354Z 06006KT 04/M11 A3036 RMK A01 T00371112  RH  033%=      5-min Rain = 0
KAM1 120355Z 06007KT 04/M11 A3036 RMK A01 T00361112  RH  033%=      5-min Rain = 0
KAM1 120356Z 06007KT 04/M11 A3036 RMK A01 T00361111  RH  033%=      5-min Rain = 0
KAM1 120357Z 06007KT 04/M11 A3036 RMK A01 T00361111  RH  033%=      5-min Rain = 0
KAM1 120358Z 06007KT 04/M11 A3036 RMK A01 T00361110  RH  033%=      5-min Rain = 0
KAM1 120359Z 06007KT 04/M11 A3036 RMK A01 T00361110  RH  034%=      5-min Rain = 0
KAM1 120400Z 06007KT 04/M11 A3036 RMK A01 T00351110  RH  034%=      5-min Rain = 0
KAM1 120401Z 06008KT 03/M11 A3036 RMK A01 T00341110  RH  034%=      5-min Rain = 0
KAM1 120402Z 06007KT 03/M11 A3036 RMK A01 T00331110  RH  034%=      5-min Rain = 0
KAM1 120403Z 06008KT 03/M11 A3036 RMK A01 T00331110  RH  034%=      5-min Rain = 0
KAM1 120404Z 06008KT 03/M11 A3036 RMK A01 T00331109  RH  034%=      5-min Rain = 0
KAM1 120405Z 06007KT 03/M11 A3036 RMK A01 T00321109  RH  035%=      5-min Rain = 0
KAM1 120406Z 06007KT 03/M11 A3036 RMK A01 T00321109  RH  035%=      5-min Rain = 0
KAM1 120407Z 06007KT 03/M11 A3036 RMK A01 T00321109  RH  035%=      5-min Rain = 0
KAM1 120408Z 06007KT 03/M11 A3036 RMK A01 T00321108  RH  035%=      5-min Rain = 0
KAM1 120409Z 06007KT 03/M11 A3036 RMK A01 T00321108  RH  035%=      5-min Rain = 0
KAM1 120410Z 06007KT 03/M11 A3036 RMK A01 T00321108  RH  035%=      5-min Rain = 0
KAM1 120411Z 06007KT 03/M11 A3036 RMK A01 T00321108  RH  035%=      5-min Rain = 0
KAM1 120412Z 06007KT 03/M11 A3036 RMK A01 T00321108  RH  035%=      5-min Rain = 0
KAM1 120413Z 06006KT 03/M11 A3036 RMK A01 T00311108  RH  035%=      5-min Rain = 0
KAM1 120414Z 06006KT 03/M11 A3036 RMK A01 T00311108  RH  035%=      5-min Rain = 0
KAM1 120415Z 06006KT 03/M11 A3036 RMK A01 T00301108  RH  036%=      5-min Rain = 0
KAM1 120416Z 06005KT 03/M11 A3036 RMK A01 T00291108  RH  036%=      5-min Rain = 0
KAM1 120417Z 06005KT 03/M11 A3036 RMK A01 T00291108  RH  036%=      5-min Rain = 0
KAM1 120418Z 06005KT 03/M11 A3036 RMK A01 T00291107  RH  036%=      5-min Rain = 0
KAM1 120419Z 06005KT 03/M11 A3036 RMK A01 T00291107  RH  036%=      5-min Rain = 0
KAM1 120420Z 06004KT 03/M11 A3036 RMK A01 T00281108  RH  036%=      5-min Rain = 0
KAM1 120421Z 06004KT 03/M11 A3036 RMK A01 T00281108  RH  036%=      5-min Rain = 0
KAM1 120422Z 06004KT 03/M11 A3036 RMK A01 T00271108  RH  036%=      5-min Rain = 0
KAM1 120423Z 06004KT 03/M11 A3036 RMK A01 T00271108  RH  036%=      5-min Rain = 0
KAM1 120424Z 06004KT 03/M11 A3036 RMK A01 T00271108  RH  036%=      5-min Rain = 0
KAM1 120425Z 06003KT 03/M11 A3036 RMK A01 T00261108  RH  037%=      5-min Rain = 0
KAM1 120426Z 06003KT 03/M11 A3036 RMK A01 T00251108  RH  037%=      5-min Rain = 0
KAM1 120427Z 06003KT 03/M11 A3036 RMK A01 T00251108  RH  037%=      5-min Rain = 0
KAM1 120428Z 05003KT 03/M11 A3036 RMK A01 T00251108  RH  037%=      5-min Rain = 0
KAM1 120429Z 05003KT 02/M11 A3036 RMK A01 T00241108  RH  037%=      5-min Rain = 0
KAM1 120430Z 05003KT 02/M11 A3036 RMK A01 T00241109  RH  037%=      5-min Rain = 0
KAM1 120431Z 05002KT 02/M11 A3036 RMK A01 T00231108  RH  037%=      5-min Rain = 0
KAM1 120432Z 04001KT 02/M11 A3037 RMK A01 T00221108  RH  037%=      5-min Rain = 0
KAM1 120433Z 05001KT 02/M11 A3037 RMK A01 T00221108  RH  038%=      5-min Rain = 0
KAM1 120434Z 04001KT 02/M11 A3037 RMK A01 T00221108  RH  038%=      5-min Rain = 0
KAM1 120435Z 04001KT 02/M11 A3037 RMK A01 T00221108  RH  038%=      5-min Rain = 0
KAM1 120436Z 05001KT 02/M11 A3037 RMK A01 T00221107  RH  038%=      5-min Rain = 0
KAM1 120437Z 00000KT 02/M11 A3037 RMK A01 T00221107  RH  038%=      5-min Rain = 0
KAM1 120438Z 00000KT 02/M11 A3037 RMK A01 T00221108  RH  038%=      5-min Rain = 0
KAM1 120439Z 07000KT 02/M11 A3037 RMK A01 T00211108  RH  038%=      5-min Rain = 0
KAM1 120440Z 08000KT 02/M11 A3037 RMK A01 T00211108  RH  038%=      5-min Rain = 0
KAM1 120441Z 09000KT 02/M11 A3037 RMK A01 T00201108  RH  038%=      5-min Rain = 0
KAM1 120442Z 00000KT 02/M11 A3037 RMK A01 T00191109  RH  038%=      5-min Rain = 0
KAM1 120443Z 07000KT 02/M11 A3037 RMK A01 T00191109  RH  038%=      5-min Rain = 0
KAM1 120444Z 00000KT 02/M11 A3037 RMK A01 T00171110  RH  038%=      5-min Rain = 0
KAM1 120445Z 00000KT 02/M11 A3037 RMK A01 T00151111  RH  038%=      5-min Rain = 0
KAM1 120446Z 00000KT 01/M11 A3037 RMK A01 T00141112  RH  039%=      5-min Rain = 0
KAM1 120447Z 00000KT 01/M11 A3037 RMK A01 T00131111  RH  039%=      5-min Rain = 0
KAM1 120448Z 00000KT 01/M11 A3037 RMK A01 T00121112  RH  039%=      5-min Rain = 0
KAM1 120449Z 00000KT 01/M11 A3037 RMK A01 T00101113  RH  040%=      5-min Rain = 0
KAM1 120450Z 00000KT 01/M11 A3037 RMK A01 T00081113  RH  040%=      5-min Rain = 0
KAM1 120451Z 00000KT 01/M11 A3037 RMK A01 T00071113  RH  040%=      5-min Rain = 0
KAM1 120452Z 00000KT 00/M11 A3037 RMK A01 T00041114  RH  041%=      5-min Rain = 0
KAM1 120453Z 00000KT 00/M11 A3037 RMK A01 T00021114  RH  041%=      5-min Rain = 0
KAM1 120454Z 00000KT 00/11 A3037 RMK A01 T00000-113  RH  042%=      5-min Rain = 0
KAM1 120455Z 00000KT 00/11 A3037 RMK A01 T00-00-112  RH  043%=      5-min Rain = 0
KAM1 120456Z 00000KT 00/11 A3037 RMK A01 T00-00-108  RH  044%=      5-min Rain = 0
KAM1 120457Z 09000KT 00/M11 A3037 RMK A01 T00011105  RH  045%=      5-min Rain = 0
KAM1 120458Z 00000KT 00/M10 A3037 RMK A01 T00011104  RH  045%=      5-min Rain = 0
KAM1 120459Z 00000KT 00/10 A3037 RMK A01 T00-00-104  RH  046%=      5-min Rain = 0

Page generated in 0.0886 seconds.